Observation data for Fritch on 02/14/2020      Previous  Date  Next       Current Mesonet Observations  Soil Data  Daily Summary Page  Observations in Plain Language
KFR1 140600Z 09007KT M05/M10 A3031 RMK A01 T10511104  RH  066%=      5-min Rain = 0
KFR1 140601Z 09006KT M05/M10 A3031 RMK A01 T10511104  RH  067%=      5-min Rain = 0
KFR1 140602Z 10006KT M05/M10 A3031 RMK A01 T10511102  RH  067%=      5-min Rain = 0
KFR1 140603Z 10006KT M05/M10 A3031 RMK A01 T10511103  RH  067%=      5-min Rain = 0
KFR1 140604Z 10007KT M05/M10 A3031 RMK A01 T10511103  RH  067%=      5-min Rain = 0
KFR1 140605Z 10007KT M05/M10 A3031 RMK A01 T10511103  RH  067%=      5-min Rain = 0
KFR1 140606Z 10007KT M05/M10 A3031 RMK A01 T10511104  RH  067%=      5-min Rain = 0
KFR1 140607Z 10006KT M05/M10 A3031 RMK A01 T10511104  RH  067%=      5-min Rain = 0
KFR1 140608Z 09005KT M05/M10 A3031 RMK A01 T10511103  RH  067%=      5-min Rain = 0
KFR1 140609Z 09008KT M05/M10 A3031 RMK A01 T10511104  RH  067%=      5-min Rain = 0
KFR1 140610Z 09007KT M05/M10 A3031 RMK A01 T10511103  RH  067%=      5-min Rain = 0
KFR1 140611Z 10005KT M05/M10 A3031 RMK A01 T10521104  RH  067%=      5-min Rain = 0
KFR1 140612Z 11006KT M05/M10 A3031 RMK A01 T10521103  RH  067%=      5-min Rain = 0
KFR1 140613Z 11006KT M05/M10 A3031 RMK A01 T10521104  RH  067%=      5-min Rain = 0
KFR1 140614Z 11006KT M05/M10 A3031 RMK A01 T10521103  RH  067%=      5-min Rain = 0
KFR1 140615Z 10007KT M05/M10 A3031 RMK A01 T10521104  RH  067%=      5-min Rain = 0
KFR1 140616Z 10007KT M05/M10 A3031 RMK A01 T10521104  RH  067%=      5-min Rain = 0
KFR1 140617Z 10008KT M05/M10 A3031 RMK A01 T10521104  RH  067%=      5-min Rain = 0
KFR1 140618Z 10007KT M05/M10 A3031 RMK A01 T10521104  RH  067%=      5-min Rain = 0
KFR1 140619Z 10006KT M05/M10 A3031 RMK A01 T10521104  RH  067%=      5-min Rain = 0
KFR1 140620Z 09005KT M05/M10 A3031 RMK A01 T10521104  RH  067%=      5-min Rain = 0
KFR1 140621Z 09006KT M05/M10 A3032 RMK A01 T10521104  RH  067%=      5-min Rain = 0
KFR1 140622Z 09007KT M05/M10 A3032 RMK A01 T10521103  RH  067%=      5-min Rain = 0
KFR1 140623Z 09008KT M05/M10 A3032 RMK A01 T10521104  RH  067%=      5-min Rain = 0
KFR1 140624Z 10007KT M05/M10 A3032 RMK A01 T10521104  RH  067%=      5-min Rain = 0
KFR1 140625Z 09006KT M05/M10 A3032 RMK A01 T10521103  RH  067%=      5-min Rain = 0
KFR1 140626Z 09006KT M05/M10 A3032 RMK A01 T10521103  RH  067%=      5-min Rain = 0
KFR1 140627Z 10006KT M05/M10 A3032 RMK A01 T10521103  RH  067%=      5-min Rain = 0
KFR1 140628Z 10005KT M05/M10 A3032 RMK A01 T10521103  RH  067%=      5-min Rain = 0
KFR1 140629Z 10006KT M05/M10 A3032 RMK A01 T10521103  RH  067%=      5-min Rain = 0
KFR1 140630Z 10006KT M05/M10 A3032 RMK A01 T10521104  RH  067%=      5-min Rain = 0
KFR1 140631Z 09006KT M05/M10 A3032 RMK A01 T10521103  RH  067%=      5-min Rain = 0
KFR1 140632Z 09005KT M05/M10 A3032 RMK A01 T10521104  RH  067%=      5-min Rain = 0
KFR1 140633Z 10006KT M05/M10 A3032 RMK A01 T10521103  RH  067%=      5-min Rain = 0
KFR1 140634Z 10005KT M05/M10 A3032 RMK A01 T10521104  RH  067%=      5-min Rain = 0
KFR1 140635Z 10006KT M05/M10 A3032 RMK A01 T10521103  RH  067%=      5-min Rain = 0
KFR1 140636Z 10007KT M05/M10 A3032 RMK A01 T10521104  RH  067%=      5-min Rain = 0
KFR1 140637Z 10007KT M05/M10 A3032 RMK A01 T10521104  RH  067%=      5-min Rain = 0
KFR1 140638Z 10006KT M05/M11 A3032 RMK A01 T10521105  RH  066%=      5-min Rain = 0
KFR1 140639Z 09006KT M05/M11 A3032 RMK A01 T10521105  RH  066%=      5-min Rain = 0
KFR1 140640Z 10006KT M05/M11 A3032 RMK A01 T10521105  RH  066%=      5-min Rain = 0
KFR1 140641Z 11006KT M05/M10 A3032 RMK A01 T10521104  RH  067%=      5-min Rain = 0
KFR1 140642Z 11006KT M05/M11 A3032 RMK A01 T10521105  RH  067%=      5-min Rain = 0
KFR1 140643Z 11007KT M05/M11 A3032 RMK A01 T10521105  RH  066%=      5-min Rain = 0
KFR1 140644Z 11007KT M05/M11 A3032 RMK A01 T10521105  RH  066%=      5-min Rain = 0
KFR1 140645Z 11007KT M05/M11 A3032 RMK A01 T10521105  RH  066%=      5-min Rain = 0
KFR1 140646Z 11006KT M05/M11 A3032 RMK A01 T10521105  RH  066%=      5-min Rain = 0
KFR1 140647Z 10005KT M05/M11 A3032 RMK A01 T10521105  RH  066%=      5-min Rain = 0
KFR1 140648Z 10006KT M05/M11 A3032 RMK A01 T10521105  RH  066%=      5-min Rain = 0
KFR1 140649Z 11006KT M05/M10 A3032 RMK A01 T10521104  RH  067%=      5-min Rain = 0
KFR1 140650Z 11006KT M05/M10 A3032 RMK A01 T10521104  RH  067%=      5-min Rain = 0
KFR1 140651Z 11006KT M05/M10 A3032 RMK A01 T10521104  RH  067%=      5-min Rain = 0
KFR1 140652Z 12007KT M05/M11 A3032 RMK A01 T10521105  RH  066%=      5-min Rain = 0
KFR1 140653Z 11007KT M05/M11 A3032 RMK A01 T10521106  RH  066%=      5-min Rain = 0
KFR1 140654Z 11007KT M05/M11 A3032 RMK A01 T10521106  RH  066%=      5-min Rain = 0
KFR1 140655Z 11006KT M05/M11 A3032 RMK A01 T10521105  RH  066%=      5-min Rain = 0
KFR1 140656Z 10006KT M05/M11 A3032 RMK A01 T10521105  RH  066%=      5-min Rain = 0
KFR1 140657Z 10006KT M05/M11 A3032 RMK A01 T10521105  RH  066%=      5-min Rain = 0
KFR1 140658Z 11005KT M05/M11 A3032 RMK A01 T10521105  RH  066%=      5-min Rain = 0
KFR1 140659Z 11004KT M05/M11 A3032 RMK A01 T10521105  RH  067%=      5-min Rain = 0
KFR1 140700Z 11006KT M05/M10 A3032 RMK A01 T10521104  RH  067%=      5-min Rain = 0
KFR1 140701Z 11006KT M05/M11 A3032 RMK A01 T10521105  RH  066%=      5-min Rain = 0
KFR1 140702Z 11006KT M05/M11 A3032 RMK A01 T10521106  RH  066%=      5-min Rain = 0
KFR1 140703Z 11005KT M05/M11 A3031 RMK A01 T10521106  RH  066%=      5-min Rain = 0
KFR1 140704Z 11005KT M05/M11 A3031 RMK A01 T10521105  RH  066%=      5-min Rain = 0
KFR1 140705Z 11005KT M05/M11 A3031 RMK A01 T10521105  RH  067%=      5-min Rain = 0
KFR1 140706Z 11005KT M05/M11 A3031 RMK A01 T10521105  RH  067%=      5-min Rain = 0
KFR1 140707Z 12004KT M05/M10 A3031 RMK A01 T10521104  RH  067%=      5-min Rain = 0
KFR1 140708Z 12003KT M05/M10 A3031 RMK A01 T10521104  RH  067%=      5-min Rain = 0
KFR1 140709Z 12006KT M05/M10 A3031 RMK A01 T10511103  RH  067%=      5-min Rain = 0
KFR1 140710Z 12005KT M05/M11 A3031 RMK A01 T10511105  RH  066%=      5-min Rain = 0
KFR1 140711Z 12005KT M05/M11 A3031 RMK A01 T10511106  RH  066%=      5-min Rain = 0
KFR1 140712Z 12004KT M05/M11 A3031 RMK A01 T10511106  RH  066%=      5-min Rain = 0
KFR1 140713Z 12004KT M05/M11 A3031 RMK A01 T10511105  RH  066%=      5-min Rain = 0
KFR1 140714Z 12005KT M05/M11 A3031 RMK A01 T10511105  RH  066%=      5-min Rain = 0
KFR1 140715Z 12007KT M05/M11 A3031 RMK A01 T10511105  RH  066%=      5-min Rain = 0
KFR1 140716Z 11006KT M05/M11 A3031 RMK A01 T10521107  RH  065%=      5-min Rain = 0
KFR1 140717Z 11005KT M05/M11 A3031 RMK A01 T10521106  RH  066%=      5-min Rain = 0
KFR1 140718Z 11006KT M05/M11 A3031 RMK A01 T10521106  RH  066%=      5-min Rain = 0
KFR1 140719Z 11005KT M05/M11 A3031 RMK A01 T10521106  RH  066%=      5-min Rain = 0
KFR1 140720Z 11006KT M05/M11 A3031 RMK A01 T10521105  RH  066%=      5-min Rain = 0
KFR1 140721Z 12006KT M05/M11 A3031 RMK A01 T10521105  RH  066%=      5-min Rain = 0
KFR1 140722Z 11005KT M05/M11 A3031 RMK A01 T10521106  RH  066%=      5-min Rain = 0
KFR1 140723Z 11004KT M05/M11 A3031 RMK A01 T10521105  RH  066%=      5-min Rain = 0
KFR1 140724Z 11005KT M05/M11 A3031 RMK A01 T10521105  RH  066%=      5-min Rain = 0
KFR1 140725Z 11006KT M05/M11 A3031 RMK A01 T10521105  RH  066%=      5-min Rain = 0
KFR1 140726Z 11005KT M05/M11 A3031 RMK A01 T10521105  RH  066%=      5-min Rain = 0
KFR1 140727Z 11005KT M05/M11 A3031 RMK A01 T10521105  RH  066%=      5-min Rain = 0
KFR1 140728Z 12005KT M05/M10 A3031 RMK A01 T10521104  RH  067%=      5-min Rain = 0
KFR1 140729Z 12006KT M05/M11 A3031 RMK A01 T10521105  RH  066%=      5-min Rain = 0
KFR1 140730Z 12007KT M05/M11 A3031 RMK A01 T10521106  RH  066%=      5-min Rain = 0
KFR1 140731Z 12005KT M05/M11 A3031 RMK A01 T10531106  RH  066%=      5-min Rain = 0
KFR1 140732Z 13005KT M05/M11 A3031 RMK A01 T10521106  RH  066%=      5-min Rain = 0
KFR1 140733Z 12004KT M05/M11 A3031 RMK A01 T10531106  RH  066%=      5-min Rain = 0
KFR1 140734Z 11004KT M05/M11 A3031 RMK A01 T10531105  RH  067%=      5-min Rain = 0
KFR1 140735Z 12004KT M05/M10 A3031 RMK A01 T10521104  RH  067%=      5-min Rain = 0
KFR1 140736Z 12007KT M05/M10 A3031 RMK A01 T10511103  RH  067%=      5-min Rain = 0
KFR1 140737Z 12006KT M05/M11 A3031 RMK A01 T10511105  RH  066%=      5-min Rain = 0
KFR1 140738Z 12006KT M05/M11 A3031 RMK A01 T10521106  RH  066%=      5-min Rain = 0
KFR1 140739Z 12006KT M05/M11 A3031 RMK A01 T10521106  RH  066%=      5-min Rain = 0
KFR1 140740Z 12005KT M05/M11 A3031 RMK A01 T10521106  RH  066%=      5-min Rain = 0
KFR1 140741Z 12004KT M05/M11 A3031 RMK A01 T10521106  RH  066%=      5-min Rain = 0
KFR1 140742Z 13005KT M05/M11 A3031 RMK A01 T10521106  RH  066%=      5-min Rain = 0
KFR1 140743Z 13004KT M05/M11 A3031 RMK A01 T10521106  RH  066%=      5-min Rain = 0
KFR1 140744Z 12004KT M05/M11 A3031 RMK A01 T10521106  RH  066%=      5-min Rain = 0
KFR1 140745Z 12005KT M05/M11 A3031 RMK A01 T10521105  RH  067%=      5-min Rain = 0
KFR1 140746Z 12005KT M05/M11 A3031 RMK A01 T10521105  RH  067%=      5-min Rain = 0
KFR1 140747Z 12006KT M05/M11 A3031 RMK A01 T10521105  RH  067%=      5-min Rain = 0
KFR1 140748Z 13007KT M05/M11 A3031 RMK A01 T10521105  RH  066%=      5-min Rain = 0
KFR1 140749Z 12006KT M05/M11 A3031 RMK A01 T10521106  RH  066%=      5-min Rain = 0
KFR1 140750Z 12006KT M05/M11 A3031 RMK A01 T10521105  RH  066%=      5-min Rain = 0
KFR1 140751Z 13006KT M05/M11 A3031 RMK A01 T10521106  RH  066%=      5-min Rain = 0
KFR1 140752Z 13005KT M05/M11 A3031 RMK A01 T10521105  RH  066%=      5-min Rain = 0
KFR1 140753Z 13004KT M05/M11 A3031 RMK A01 T10521106  RH  066%=      5-min Rain = 0
KFR1 140754Z 14004KT M05/M11 A3031 RMK A01 T10521105  RH  066%=      5-min Rain = 0
KFR1 140755Z 13004KT M05/M11 A3031 RMK A01 T10521105  RH  067%=      5-min Rain = 0
KFR1 140756Z 14004KT M05/M11 A3031 RMK A01 T10521105  RH  066%=      5-min Rain = 0
KFR1 140757Z 13005KT M05/M11 A3031 RMK A01 T10521105  RH  066%=      5-min Rain = 0
KFR1 140758Z 13005KT M05/M11 A3031 RMK A01 T10521105  RH  066%=      5-min Rain = 0
KFR1 140759Z 13004KT M05/M11 A3031 RMK A01 T10521105  RH  066%=      5-min Rain = 0
KFR1 140800Z 13004KT M05/M11 A3031 RMK A01 T10521105  RH  066%=      5-min Rain = 0
KFR1 140801Z 13004KT M05/M10 A3031 RMK A01 T10521104  RH  067%=      5-min Rain = 0
KFR1 140802Z 14004KT M05/M10 A3031 RMK A01 T10521104  RH  067%=      5-min Rain = 0
KFR1 140803Z 14004KT M05/M10 A3031 RMK A01 T10521104  RH  067%=      5-min Rain = 0
KFR1 140804Z 13003KT M05/M11 A3031 RMK A01 T10521105  RH  067%=      5-min Rain = 0
KFR1 140805Z 15006KT M05/M10 A3031 RMK A01 T10521104  RH  067%=      5-min Rain = 0
KFR1 140806Z 14007KT M05/M11 A3031 RMK A01 T10521105  RH  066%=      5-min Rain = 0
KFR1 140807Z 13005KT M05/M11 A3031 RMK A01 T10521105  RH  066%=      5-min Rain = 0
KFR1 140808Z 14005KT M05/M11 A3031 RMK A01 T10521105  RH  066%=      5-min Rain = 0
KFR1 140809Z 14004KT M05/M11 A3031 RMK A01 T10521106  RH  066%=      5-min Rain = 0
KFR1 140810Z 14004KT M05/M11 A3031 RMK A01 T10521105  RH  067%=      5-min Rain = 0
KFR1 140811Z 14004KT M05/M10 A3031 RMK A01 T10521104  RH  067%=      5-min Rain = 0
KFR1 140812Z 14005KT M05/M10 A3031 RMK A01 T10521104  RH  067%=      5-min Rain = 0
KFR1 140813Z 13005KT M05/M11 A3031 RMK A01 T10521105  RH  067%=      5-min Rain = 0
KFR1 140814Z 14005KT M05/M10 A3031 RMK A01 T10521104  RH  067%=      5-min Rain = 0
KFR1 140815Z 15005KT M05/M10 A3031 RMK A01 T10521104  RH  067%=      5-min Rain = 0
KFR1 140816Z 13005KT M05/M10 A3031 RMK A01 T10521104  RH  067%=      5-min Rain = 0
KFR1 140817Z 14005KT M05/M10 A3031 RMK A01 T10521104  RH  067%=      5-min Rain = 0
KFR1 140818Z 15005KT M05/M10 A3031 RMK A01 T10521104  RH  067%=      5-min Rain = 0
KFR1 140819Z 13004KT M05/M10 A3031 RMK A01 T10521104  RH  067%=      5-min Rain = 0
KFR1 140820Z 13004KT M05/M10 A3031 RMK A01 T10521104  RH  067%=      5-min Rain = 0
KFR1 140821Z 15003KT M05/M10 A3031 RMK A01 T10521103  RH  067%=      5-min Rain = 0
KFR1 140822Z 15003KT M05/M10 A3031 RMK A01 T10521102  RH  068%=      5-min Rain = 0
KFR1 140823Z 16005KT M05/M10 A3031 RMK A01 T10521102  RH  068%=      5-min Rain = 0
KFR1 140824Z 15006KT M05/M10 A3031 RMK A01 T10511102  RH  068%=      5-min Rain = 0
KFR1 140825Z 16007KT M05/M10 A3031 RMK A01 T10511103  RH  067%=      5-min Rain = 0
KFR1 140826Z 16006KT M05/M10 A3031 RMK A01 T10511103  RH  067%=      5-min Rain = 0
KFR1 140827Z 16005KT M05/M10 A3031 RMK A01 T10511102  RH  067%=      5-min Rain = 0
KFR1 140828Z 16004KT M05/M10 A3031 RMK A01 T10511102  RH  067%=      5-min Rain = 0
KFR1 140829Z 14004KT M05/M10 A3031 RMK A01 T10511102  RH  067%=      5-min Rain = 0
KFR1 140830Z 15005KT M05/M10 A3031 RMK A01 T10511103  RH  067%=      5-min Rain = 0
KFR1 140831Z 15004KT M05/M10 A3031 RMK A01 T10511103  RH  067%=      5-min Rain = 0
KFR1 140832Z 15004KT M05/M10 A3031 RMK A01 T10511103  RH  067%=      5-min Rain = 0
KFR1 140833Z 14004KT M05/M10 A3031 RMK A01 T10511102  RH  067%=      5-min Rain = 0
KFR1 140834Z 14005KT M05/M10 A3031 RMK A01 T10511102  RH  067%=      5-min Rain = 0
KFR1 140835Z 15004KT M05/M10 A3031 RMK A01 T10511103  RH  067%=      5-min Rain = 0
KFR1 140836Z 14004KT M05/M10 A3031 RMK A01 T10511103  RH  067%=      5-min Rain = 0
KFR1 140837Z 17005KT M05/M10 A3031 RMK A01 T10511102  RH  068%=      5-min Rain = 0
KFR1 140838Z 16005KT M05/M10 A3031 RMK A01 T10511102  RH  068%=      5-min Rain = 0
KFR1 140839Z 15005KT M05/M10 A3031 RMK A01 T10511102  RH  068%=      5-min Rain = 0
KFR1 140840Z 15004KT M05/M10 A3031 RMK A01 T10511101  RH  068%=      5-min Rain = 0
KFR1 140841Z 15004KT M05/M10 A3031 RMK A01 T10511102  RH  068%=      5-min Rain = 0
KFR1 140842Z 16005KT M05/M10 A3031 RMK A01 T10511101  RH  068%=      5-min Rain = 0
KFR1 140843Z 15004KT M05/M10 A3031 RMK A01 T10511101  RH  068%=      5-min Rain = 0
KFR1 140844Z 16004KT M05/M10 A3031 RMK A01 T10511101  RH  068%=      5-min Rain = 0
KFR1 140845Z 16004KT M05/M10 A3031 RMK A01 T10511100  RH  069%=      5-min Rain = 0
KFR1 140846Z 17004KT M05/M10 A3031 RMK A01 T10511100  RH  069%=      5-min Rain = 0
KFR1 140847Z 16005KT M05/M10 A3031 RMK A01 T10511100  RH  069%=      5-min Rain = 0
KFR1 140848Z 15004KT M05/M10 A3031 RMK A01 T10511100  RH  068%=      5-min Rain = 0
KFR1 140849Z 16005KT M05/M10 A3031 RMK A01 T10511100  RH  069%=      5-min Rain = 0
KFR1 140850Z 16005KT M05/M10 A3032 RMK A01 T10501100  RH  068%=      5-min Rain = 0
KFR1 140851Z 16005KT M05/M10 A3032 RMK A01 T10501100  RH  068%=      5-min Rain = 0
KFR1 140852Z 16005KT M05/M10 A3032 RMK A01 T10501100  RH  068%=      5-min Rain = 0
KFR1 140853Z 16005KT M05/M10 A3032 RMK A01 T10501100  RH  068%=      5-min Rain = 0
KFR1 140854Z 17005KT M05/M10 A3032 RMK A01 T10501100  RH  068%=      5-min Rain = 0
KFR1 140855Z 16006KT M05/M10 A3031 RMK A01 T10501100  RH  068%=      5-min Rain = 0
KFR1 140856Z 17007KT M05/M10 A3031 RMK A01 T10501100  RH  068%=      5-min Rain = 0
KFR1 140857Z 16006KT M05/M10 A3031 RMK A01 T10501100  RH  068%=      5-min Rain = 0
KFR1 140858Z 16006KT M05/M10 A3031 RMK A01 T10501100  RH  068%=      5-min Rain = 0
KFR1 140859Z 17006KT M05/M10 A3031 RMK A01 T10501100  RH  068%=      5-min Rain = 0
KFR1 140900Z 18006KT M05/M10 A3031 RMK A01 T10491100  RH  068%=      5-min Rain = 0
KFR1 140901Z 17005KT M05/M10 A3031 RMK A01 T10491100  RH  068%=      5-min Rain = 0
KFR1 140902Z 18008KT M05/M10 A3031 RMK A01 T10491099  RH  068%=      5-min Rain = 0
KFR1 140903Z 18007KT M05/M10 A3031 RMK A01 T10491101  RH  067%=      5-min Rain = 0
KFR1 140904Z 18009KT M05/M10 A3031 RMK A01 T10491104  RH  066%=      5-min Rain = 0
KFR1 140905Z 18008KT M05/M11 A3031 RMK A01 T10501107  RH  064%=      5-min Rain = 0
KFR1 140906Z 18009KT M05/M11 A3031 RMK A01 T10501109  RH  063%=      5-min Rain = 0
KFR1 140907Z 17008KT M05/M11 A3031 RMK A01 T10491110  RH  063%=      5-min Rain = 0
KFR1 140908Z 18008KT M05/M11 A3031 RMK A01 T10491110  RH  062%=      5-min Rain = 0
KFR1 140909Z 18007KT M05/M11 A3031 RMK A01 T10491111  RH  062%=      5-min Rain = 0
KFR1 140910Z 18008KT M05/M11 A3031 RMK A01 T10501111  RH  062%=      5-min Rain = 0
KFR1 140911Z 18006KT M05/M11 A3031 RMK A01 T10491111  RH  062%=      5-min Rain = 0
KFR1 140912Z 18007KT M05/M11 A3031 RMK A01 T10491110  RH  062%=      5-min Rain = 0
KFR1 140913Z 18009KT M05/M11 A3031 RMK A01 T10501111  RH  062%=      5-min Rain = 0
KFR1 140914Z 18006KT M05/M11 A3031 RMK A01 T10501112  RH  062%=      5-min Rain = 0
KFR1 140915Z 17007KT M05/M11 A3031 RMK A01 T10501111  RH  062%=      5-min Rain = 0
KFR1 140916Z 17007KT M05/M11 A3031 RMK A01 T10501112  RH  062%=      5-min Rain = 0
KFR1 140917Z 18006KT M05/M11 A3031 RMK A01 T10501112  RH  062%=      5-min Rain = 0
KFR1 140918Z 18006KT M05/M11 A3031 RMK A01 T10501113  RH  062%=      5-min Rain = 0
KFR1 140919Z 18005KT M05/M11 A3031 RMK A01 T10501113  RH  061%=      5-min Rain = 0
KFR1 140920Z 18006KT M05/M11 A3031 RMK A01 T10501113  RH  061%=      5-min Rain = 0
KFR1 140921Z 19007KT M05/M11 A3031 RMK A01 T10501113  RH  061%=      5-min Rain = 0
KFR1 140922Z 19010KT M05/M11 A3031 RMK A01 T10501114  RH  061%=      5-min Rain = 0
KFR1 140923Z 19008KT M05/M12 A3031 RMK A01 T10511115  RH  061%=      5-min Rain = 0
KFR1 140924Z 19008KT M05/M12 A3031 RMK A01 T10511115  RH  061%=      5-min Rain = 0
KFR1 140925Z 19008KT M05/M12 A3031 RMK A01 T10511115  RH  061%=      5-min Rain = 0
KFR1 140926Z 18007KT M05/M11 A3031 RMK A01 T10511114  RH  061%=      5-min Rain = 0
KFR1 140927Z 18009KT M05/M12 A3031 RMK A01 T10521115  RH  061%=      5-min Rain = 0
KFR1 140928Z 18006KT M05/M12 A3031 RMK A01 T10521116  RH  061%=      5-min Rain = 0
KFR1 140929Z 18010KT M05/M12 A3031 RMK A01 T10521116  RH  061%=      5-min Rain = 0
KFR1 140930Z 18009KT M05/M12 A303 RMK A01 T10521116  RH  061%=      5-min Rain = 0
KFR1 140931Z 18009KT M05/M12 A303 RMK A01 T10531117  RH  061%=      5-min Rain = 0
KFR1 140932Z 18008KT M05/M12 A303 RMK A01 T10531117  RH  061%=      5-min Rain = 0
KFR1 140933Z 18008KT M05/M12 A303 RMK A01 T10531117  RH  061%=      5-min Rain = 0
KFR1 140934Z 18009KT M05/M12 A303 RMK A01 T10531116  RH  061%=      5-min Rain = 0
KFR1 140935Z 17008KT M05/M12 A303 RMK A01 T10531116  RH  061%=      5-min Rain = 0
KFR1 140936Z 18009KT M05/M12 A303 RMK A01 T10531116  RH  061%=      5-min Rain = 0
KFR1 140937Z 17009KT M05/M12 A303 RMK A01 T10531115  RH  062%=      5-min Rain = 0
KFR1 140938Z 18008KT M05/M12 A303 RMK A01 T10531115  RH  062%=      5-min Rain = 0
KFR1 140939Z 17008KT M05/M12 A303 RMK A01 T10531115  RH  062%=      5-min Rain = 0
KFR1 140940Z 17007KT M05/M12 A303 RMK A01 T10531115  RH  062%=      5-min Rain = 0
KFR1 140941Z 18008KT M05/M12 A303 RMK A01 T10531115  RH  062%=      5-min Rain = 0
KFR1 140942Z 18005KT M05/M12 A303 RMK A01 T10531115  RH  062%=      5-min Rain = 0
KFR1 140943Z 18005KT M05/M11 A303 RMK A01 T10531114  RH  063%=      5-min Rain = 0
KFR1 140944Z 18004KT M05/M11 A303 RMK A01 T10531112  RH  063%=      5-min Rain = 0
KFR1 140945Z 19004KT M05/M11 A303 RMK A01 T10531113  RH  063%=      5-min Rain = 0
KFR1 140946Z 18005KT M05/M11 A303 RMK A01 T10531112  RH  063%=      5-min Rain = 0
KFR1 140947Z 18006KT M05/M11 A303 RMK A01 T10531112  RH  063%=      5-min Rain = 0
KFR1 140948Z 19008KT M05/M11 A303 RMK A01 T10531113  RH  063%=      5-min Rain = 0
KFR1 140949Z 20008KT M05/M11 A303 RMK A01 T10531114  RH  062%=      5-min Rain = 0
KFR1 140950Z 18006KT M05/M11 A303 RMK A01 T10531114  RH  063%=      5-min Rain = 0
KFR1 140951Z 18007KT M05/M11 A303 RMK A01 T10531113  RH  063%=      5-min Rain = 0
KFR1 140952Z 19007KT M05/M11 A303 RMK A01 T10531113  RH  063%=      5-min Rain = 0
KFR1 140953Z 18008KT M05/M11 A303 RMK A01 T10531113  RH  063%=      5-min Rain = 0
KFR1 140954Z 18008KT M05/M11 A303 RMK A01 T10531113  RH  063%=      5-min Rain = 0
KFR1 140955Z 19008KT M05/M11 A303 RMK A01 T10531113  RH  063%=      5-min Rain = 0
KFR1 140956Z 19009KT M05/M11 A303 RMK A01 T10531112  RH  063%=      5-min Rain = 0
KFR1 140957Z 19009KT M05/M11 A303 RMK A01 T10531113  RH  063%=      5-min Rain = 0
KFR1 140958Z 19008KT M05/M11 A303 RMK A01 T10541113  RH  063%=      5-min Rain = 0
KFR1 140959Z 19008KT M05/M11 A303 RMK A01 T10541112  RH  063%=      5-min Rain = 0
KFR1 141000Z 18008KT M05/M11 A303 RMK A01 T10541112  RH  063%=      5-min Rain = 0
KFR1 141001Z 18008KT M05/M11 A303 RMK A01 T10531112  RH  063%=      5-min Rain = 0
KFR1 141002Z 18007KT M05/M11 A303 RMK A01 T10541112  RH  063%=      5-min Rain = 0
KFR1 141003Z 18007KT M05/M11 A303 RMK A01 T10541112  RH  064%=      5-min Rain = 0
KFR1 141004Z 19007KT M05/M11 A303 RMK A01 T10541112  RH  064%=      5-min Rain = 0
KFR1 141005Z 19007KT M05/M11 A303 RMK A01 T10531112  RH  064%=      5-min Rain = 0
KFR1 141006Z 18007KT M05/M11 A303 RMK A01 T10531111  RH  064%=      5-min Rain = 0
KFR1 141007Z 18006KT M05/M11 A303 RMK A01 T10541111  RH  064%=      5-min Rain = 0
KFR1 141008Z 18007KT M05/M11 A3029 RMK A01 T10541111  RH  064%=      5-min Rain = 0
KFR1 141009Z 19006KT M05/M11 A3029 RMK A01 T10531111  RH  064%=      5-min Rain = 0
KFR1 141010Z 19006KT M05/M11 A3029 RMK A01 T10531110  RH  064%=      5-min Rain = 0
KFR1 141011Z 19006KT M05/M11 A3029 RMK A01 T10531110  RH  064%=      5-min Rain = 0
KFR1 141012Z 19006KT M05/M11 A3029 RMK A01 T10531110  RH  064%=      5-min Rain = 0
KFR1 141013Z 19008KT M05/M11 A3029 RMK A01 T10531109  RH  064%=      5-min Rain = 0
KFR1 141014Z 19007KT M05/M11 A3029 RMK A01 T10531110  RH  064%=      5-min Rain = 0
KFR1 141015Z 19008KT M05/M11 A3029 RMK A01 T10531109  RH  064%=      5-min Rain = 0
KFR1 141016Z 19007KT M05/M11 A3029 RMK A01 T10531110  RH  064%=      5-min Rain = 0
KFR1 141017Z 18007KT M05/M11 A3029 RMK A01 T10531109  RH  064%=      5-min Rain = 0
KFR1 141018Z 19007KT M05/M11 A3029 RMK A01 T10531109  RH  064%=      5-min Rain = 0
KFR1 141019Z 20006KT M05/M11 A3029 RMK A01 T10521109  RH  065%=      5-min Rain = 0
KFR1 141020Z 19006KT M05/M11 A3029 RMK A01 T10521108  RH  065%=      5-min Rain = 0
KFR1 141021Z 20006KT M05/M11 A3029 RMK A01 T10521108  RH  065%=      5-min Rain = 0
KFR1 141022Z 19006KT M05/M11 A3029 RMK A01 T10521107  RH  065%=      5-min Rain = 0
KFR1 141023Z 20007KT M05/M11 A3029 RMK A01 T10521108  RH  065%=      5-min Rain = 0
KFR1 141024Z 20008KT M05/M11 A3029 RMK A01 T10521108  RH  065%=      5-min Rain = 0
KFR1 141025Z 20007KT M05/M11 A3029 RMK A01 T10521109  RH  064%=      5-min Rain = 0
KFR1 141026Z 19007KT M05/M11 A3029 RMK A01 T10521109  RH  064%=      5-min Rain = 0
KFR1 141027Z 19007KT M05/M11 A3029 RMK A01 T10521109  RH  064%=      5-min Rain = 0
KFR1 141028Z 19005KT M05/M11 A3029 RMK A01 T10521108  RH  064%=      5-min Rain = 0
KFR1 141029Z 19006KT M05/M11 A3029 RMK A01 T10511107  RH  065%=      5-min Rain = 0
KFR1 141030Z 19006KT M05/M11 A3029 RMK A01 T10511107  RH  065%=      5-min Rain = 0
KFR1 141031Z 20005KT M05/M11 A3029 RMK A01 T10511107  RH  065%=      5-min Rain = 0
KFR1 141032Z 20004KT M05/M11 A3029 RMK A01 T10511107  RH  065%=      5-min Rain = 0
KFR1 141033Z 20005KT M05/M11 A3029 RMK A01 T10511107  RH  065%=      5-min Rain = 0
KFR1 141034Z 20007KT M05/M11 A3029 RMK A01 T10501107  RH  065%=      5-min Rain = 0
KFR1 141035Z 20006KT M05/M11 A3029 RMK A01 T10501108  RH  064%=      5-min Rain = 0
KFR1 141036Z 21005KT M05/M11 A3029 RMK A01 T10501108  RH  064%=      5-min Rain = 0
KFR1 141037Z 20006KT M05/M11 A3029 RMK A01 T10501108  RH  064%=      5-min Rain = 0
KFR1 141038Z 20006KT M05/M11 A3029 RMK A01 T10511108  RH  064%=      5-min Rain = 0
KFR1 141039Z 19008KT M05/M11 A3029 RMK A01 T10501108  RH  064%=      5-min Rain = 0
KFR1 141040Z 20008KT M05/M11 A3029 RMK A01 T10501108  RH  064%=      5-min Rain = 0
KFR1 141041Z 19007KT M05/M11 A3029 RMK A01 T10501108  RH  064%=      5-min Rain = 0
KFR1 141042Z 20007KT M05/M11 A3029 RMK A01 T10511108  RH  064%=      5-min Rain = 0
KFR1 141043Z 20006KT M05/M11 A3029 RMK A01 T10501108  RH  064%=      5-min Rain = 0
KFR1 141044Z 19005KT M05/M11 A3029 RMK A01 T10501107  RH  064%=      5-min Rain = 0
KFR1 141045Z 20005KT M05/M11 A3029 RMK A01 T10491106  RH  064%=      5-min Rain = 0
KFR1 141046Z 20006KT M05/M11 A3029 RMK A01 T10501107  RH  064%=      5-min Rain = 0
KFR1 141047Z 19008KT M05/M11 A3029 RMK A01 T10501107  RH  064%=      5-min Rain = 0
KFR1 141048Z 20007KT M05/M11 A3029 RMK A01 T10491107  RH  064%=      5-min Rain = 0
KFR1 141049Z 19007KT M05/M11 A3029 RMK A01 T10491108  RH  064%=      5-min Rain = 0
KFR1 141050Z 19007KT M05/M11 A3029 RMK A01 T10491108  RH  064%=      5-min Rain = 0
KFR1 141051Z 19005KT M05/M11 A3029 RMK A01 T10501108  RH  064%=      5-min Rain = 0
KFR1 141052Z 19010KT M05/M11 A3029 RMK A01 T10491108  RH  063%=      5-min Rain = 0
KFR1 141053Z 19010KT M05/M11 A3029 RMK A01 T10501110  RH  063%=      5-min Rain = 0
KFR1 141054Z 19010KT M05/M11 A3029 RMK A01 T10501110  RH  063%=      5-min Rain = 0
KFR1 141055Z 19010KT M05/M11 A3029 RMK A01 T10491110  RH  063%=      5-min Rain = 0
KFR1 141056Z 20010KT M05/M11 A3029 RMK A01 T10501110  RH  063%=      5-min Rain = 0
KFR1 141057Z 19010KT M05/M11 A3029 RMK A01 T10501110  RH  063%=      5-min Rain = 0
KFR1 141058Z 20010KT M05/M11 A3029 RMK A01 T10501110  RH  063%=      5-min Rain = 0
KFR1 141059Z 20010KT M05/M11 A3029 RMK A01 T10491110  RH  063%=      5-min Rain = 0
KFR1 141100Z 19010KT M05/M11 A3028 RMK A01 T10491110  RH  062%=      5-min Rain = 0
KFR1 141101Z 19010KT M05/M11 A3028 RMK A01 T10501111  RH  062%=      5-min Rain = 0
KFR1 141102Z 20009KT M05/M11 A3028 RMK A01 T10501111  RH  062%=      5-min Rain = 0
KFR1 141103Z 20011KT M05/M11 A3028 RMK A01 T10491111  RH  062%=      5-min Rain = 0
KFR1 141104Z 20011KT M05/M11 A3028 RMK A01 T10501111  RH  062%=      5-min Rain = 0
KFR1 141105Z 20009KT M05/M11 A3029 RMK A01 T10491111  RH  062%=      5-min Rain = 0
KFR1 141106Z 19011KT M05/M11 A3029 RMK A01 T10491111  RH  062%=      5-min Rain = 0
KFR1 141107Z 20008KT M05/M11 A3029 RMK A01 T10491111  RH  062%=      5-min Rain = 0
KFR1 141108Z 19010KT M05/M11 A3029 RMK A01 T10501111  RH  062%=      5-min Rain = 0
KFR1 141109Z 19011KT M05/M11 A3029 RMK A01 T10501110  RH  063%=      5-min Rain = 0
KFR1 141110Z 19010KT M05/M11 A3029 RMK A01 T10491110  RH  063%=      5-min Rain = 0
KFR1 141111Z 19009KT M05/M11 A3028 RMK A01 T10491110  RH  062%=      5-min Rain = 0
KFR1 141112Z 19010KT M05/M11 A3028 RMK A01 T10501110  RH  062%=      5-min Rain = 0
KFR1 141113Z 20008KT M05/M11 A3028 RMK A01 T10501110  RH  063%=      5-min Rain = 0
KFR1 141114Z 19009KT M05/M11 A3028 RMK A01 T10501110  RH  063%=      5-min Rain = 0
KFR1 141115Z 19007KT M05/M11 A3028 RMK A01 T10491110  RH  063%=      5-min Rain = 0
KFR1 141116Z 19007KT M05/M11 A3028 RMK A01 T10501110  RH  063%=      5-min Rain = 0
KFR1 141117Z 19006KT M05/M11 A3028 RMK A01 T10501109  RH  063%=      5-min Rain = 0
KFR1 141118Z 19009KT M05/M11 A3028 RMK A01 T10501109  RH  063%=      5-min Rain = 0
KFR1 141119Z 19009KT M05/M11 A3028 RMK A01 T10491109  RH  063%=      5-min Rain = 0
KFR1 141120Z 20008KT M05/M11 A3028 RMK A01 T10501109  RH  063%=      5-min Rain = 0
KFR1 141121Z 19010KT M05/M11 A3028 RMK A01 T10491109  RH  063%=      5-min Rain = 0
KFR1 141122Z 19010KT M05/M11 A3028 RMK A01 T10501109  RH  063%=      5-min Rain = 0
KFR1 141123Z 19010KT M05/M11 A3028 RMK A01 T10491109  RH  063%=      5-min Rain = 0
KFR1 141124Z 19011KT M05/M11 A3028 RMK A01 T10491108  RH  063%=      5-min Rain = 0
KFR1 141125Z 19008KT M05/M11 A3028 RMK A01 T10501109  RH  063%=      5-min Rain = 0
KFR1 141126Z 18009KT M05/M11 A3028 RMK A01 T10491109  RH  063%=      5-min Rain = 0
KFR1 141127Z 19009KT M05/M11 A3028 RMK A01 T10491108  RH  063%=      5-min Rain = 0
KFR1 141128Z 19010KT M05/M11 A3028 RMK A01 T10491108  RH  063%=      5-min Rain = 0
KFR1 141129Z 19010KT M05/M11 A3028 RMK A01 T10501109  RH  063%=      5-min Rain = 0
KFR1 141130Z 19011KT M05/M11 A3028 RMK A01 T10501109  RH  063%=      5-min Rain = 0
KFR1 141131Z 19010KT M05/M11 A3028 RMK A01 T10501109  RH  063%=      5-min Rain = 0
KFR1 141132Z 19010KT M05/M11 A3028 RMK A01 T10501109  RH  063%=      5-min Rain = 0
KFR1 141133Z 19010KT M05/M11 A3028 RMK A01 T10501109  RH  063%=      5-min Rain = 0
KFR1 141134Z 20009KT M05/M11 A3028 RMK A01 T10501108  RH  063%=      5-min Rain = 0
KFR1 141135Z 19010KT M05/M11 A3028 RMK A01 T10501108  RH  064%=      5-min Rain = 0
KFR1 141136Z 19007KT M05/M11 A3028 RMK A01 T10501108  RH  064%=      5-min Rain = 0
KFR1 141137Z 19008KT M05/M11 A3028 RMK A01 T10501108  RH  064%=      5-min Rain = 0
KFR1 141138Z 20008KT M05/M11 A3028 RMK A01 T10501107  RH  064%=      5-min Rain = 0
KFR1 141139Z 19009KT M05/M11 A3028 RMK A01 T10501107  RH  064%=      5-min Rain = 0
KFR1 141140Z 18009KT M05/M11 A3028 RMK A01 T10501108  RH  064%=      5-min Rain = 0
KFR1 141141Z 19009KT M05/M11 A3028 RMK A01 T10501108  RH  064%=      5-min Rain = 0
KFR1 141142Z 19009KT M05/M11 A3028 RMK A01 T10501107  RH  064%=      5-min Rain = 0
KFR1 141143Z 19007KT M05/M11 A3028 RMK A01 T10501107  RH  064%=      5-min Rain = 0
KFR1 141144Z 18009KT M05/M11 A3028 RMK A01 T10501107  RH  064%=      5-min Rain = 0
KFR1 141145Z 19010KT M05/M11 A3028 RMK A01 T10501107  RH  064%=      5-min Rain = 0
KFR1 141146Z 19009KT M05/M11 A3028 RMK A01 T10501107  RH  065%=      5-min Rain = 0
KFR1 141147Z 18009KT M05/M11 A3028 RMK A01 T10501107  RH  065%=      5-min Rain = 0
KFR1 141148Z 18011KT M05/M11 A3028 RMK A01 T10501106  RH  065%=      5-min Rain = 0
KFR1 141149Z 19010KT M05/M11 A3028 RMK A01 T10501107  RH  064%=      5-min Rain = 0
KFR1 141150Z 18009KT M05/M11 A3028 RMK A01 T10501107  RH  064%=      5-min Rain = 0
KFR1 141151Z 19007KT M05/M11 A3028 RMK A01 T10511107  RH  065%=      5-min Rain = 0
KFR1 141152Z 19009KT M05/M11 A3028 RMK A01 T10501106  RH  065%=      5-min Rain = 0
KFR1 141153Z 19011KT M05/M11 A3028 RMK A01 T10501106  RH  065%=      5-min Rain = 0
KFR1 141154Z 19010KT M05/M11 A3028 RMK A01 T10501107  RH  065%=      5-min Rain = 0
KFR1 141155Z 19009KT M05/M11 A3028 RMK A01 T10511107  RH  065%=      5-min Rain = 0
KFR1 141156Z 19008KT M05/M11 A3028 RMK A01 T10511106  RH  065%=      5-min Rain = 0
KFR1 141157Z 19008KT M05/M11 A3028 RMK A01 T10501106  RH  065%=      5-min Rain = 0
KFR1 141158Z 18007KT M05/M11 A3028 RMK A01 T10501105  RH  065%=      5-min Rain = 0
KFR1 141159Z 19011KT M05/M11 A3028 RMK A01 T10501105  RH  066%=      5-min Rain = 0
KFR1 141200Z 19011KT M05/M11 A3028 RMK A01 T10501105  RH  065%=      5-min Rain = 0
KFR1 141201Z 19011KT M05/M11 A3028 RMK A01 T10501105  RH  065%=      5-min Rain = 0
KFR1 141202Z 19011KT M05/M11 A3028 RMK A01 T10501106  RH  065%=      5-min Rain = 0
KFR1 141203Z 19011KT M05/M11 A3028 RMK A01 T10501106  RH  065%=      5-min Rain = 0
KFR1 141204Z 18009KT M05/M11 A3028 RMK A01 T10501105  RH  065%=      5-min Rain = 0
KFR1 141205Z 19007KT M05/M11 A3028 RMK A01 T10501105  RH  065%=      5-min Rain = 0
KFR1 141206Z 19011KT M05/M11 A3028 RMK A01 T10501105  RH  066%=      5-min Rain = 0
KFR1 141207Z 19013KT M05/M11 A3028 RMK A01 T10501105  RH  065%=      5-min Rain = 0
KFR1 141208Z 18009KT M05/M11 A3028 RMK A01 T10501105  RH  065%=      5-min Rain = 0
KFR1 141209Z 19011KT M05/M11 A3028 RMK A01 T10501105  RH  066%=      5-min Rain = 0
KFR1 141210Z 19011KT M05/M11 A3028 RMK A01 T10501105  RH  066%=      5-min Rain = 0
KFR1 141211Z 19009KT M05/M11 A3028 RMK A01 T10511105  RH  066%=      5-min Rain = 0
KFR1 141212Z 19011KT M05/M10 A3028 RMK A01 T10511104  RH  066%=      5-min Rain = 0
KFR1 141213Z 19012KT M05/M10 A3027 RMK A01 T10501104  RH  066%=      5-min Rain = 0
KFR1 141214Z 19011KT M05/M10 A3027 RMK A01 T10501104  RH  066%=      5-min Rain = 0
KFR1 141215Z 19009KT M05/M11 A3028 RMK A01 T10511105  RH  066%=      5-min Rain = 0
KFR1 141216Z 19010KT M05/M11 A3028 RMK A01 T10511105  RH  066%=      5-min Rain = 0
KFR1 141217Z 19009KT M05/M10 A3027 RMK A01 T10511104  RH  066%=      5-min Rain = 0
KFR1 141218Z 19010KT M05/M10 A3027 RMK A01 T10511104  RH  066%=      5-min Rain = 0
KFR1 141219Z 19010KT M05/M10 A3028 RMK A01 T10511103  RH  067%=      5-min Rain = 0
KFR1 141220Z 19010KT M05/M10 A3028 RMK A01 T10501103  RH  067%=      5-min Rain = 0
KFR1 141221Z 19009KT M05/M10 A3028 RMK A01 T10511103  RH  067%=      5-min Rain = 0
KFR1 141222Z 19007KT M05/M10 A3028 RMK A01 T10501102  RH  067%=      5-min Rain = 0
KFR1 141223Z 19008KT M05/M10 A3027 RMK A01 T10501101  RH  067%=      5-min Rain = 0
KFR1 141224Z 19010G15KT M05/M10 A3028 RMK A01 T10501101  RH  067%=      5-min Rain = 0
KFR1 141225Z 19011KT M05/M10 A3027 RMK A01 T10501101  RH  068%=      5-min Rain = 0
KFR1 141226Z 18013KT M05/M10 A3027 RMK A01 T10501100  RH  068%=      5-min Rain = 0
KFR1 141227Z 19011KT M05/M10 A3028 RMK A01 T10501099  RH  068%=      5-min Rain = 0
KFR1 141228Z 19012KT M05/M10 A3028 RMK A01 T10501098  RH  069%=      5-min Rain = 0
KFR1 141229Z 19013KT M05/M10 A3028 RMK A01 T10501098  RH  069%=      5-min Rain = 0
KFR1 141230Z 20013KT M05/M10 A3027 RMK A01 T10501097  RH  069%=      5-min Rain = 0
KFR1 141231Z 20011KT M05/M10 A3027 RMK A01 T10501096  RH  070%=      5-min Rain = 0
KFR1 141232Z 20010KT M05/M10 A3027 RMK A01 T10501096  RH  070%=      5-min Rain = 0
KFR1 141233Z 19011KT M05/M10 A3027 RMK A01 T10501095  RH  071%=      5-min Rain = 0
KFR1 141234Z 19010G15KT M05/M10 A3027 RMK A01 T10501095  RH  071%=      5-min Rain = 0
KFR1 141235Z 19012KT M05/M10 A3027 RMK A01 T10501095  RH  071%=      5-min Rain = 0
KFR1 141236Z 18011KT M05/M09 A3027 RMK A01 T10501094  RH  071%=      5-min Rain = 0
KFR1 141237Z 18013KT M05/M09 A3027 RMK A01 T10501094  RH  071%=      5-min Rain = 0
KFR1 141238Z 18014KT M05/M09 A3027 RMK A01 T10501094  RH  071%=      5-min Rain = 0
KFR1 141239Z 19012KT M05/M09 A3027 RMK A01 T10501094  RH  072%=      5-min Rain = 0
KFR1 141240Z 19010KT M05/M09 A3027 RMK A01 T10501093  RH  072%=      5-min Rain = 0
KFR1 141241Z 19012KT M05/M09 A3027 RMK A01 T10501093  RH  072%=      5-min Rain = 0
KFR1 141242Z 19014KT M05/M09 A3027 RMK A01 T10501093  RH  072%=      5-min Rain = 0
KFR1 141243Z 19014G19KT M05/M09 A3027 RMK A01 T10511092  RH  073%=      5-min Rain = 0
KFR1 141244Z 19014KT M05/M09 A3027 RMK A01 T10511090  RH  074%=      5-min Rain = 0
KFR1 141245Z 19014KT M05/M09 A3027 RMK A01 T10511090  RH  074%=      5-min Rain = 0
KFR1 141246Z 20013KT M05/M09 A3027 RMK A01 T10511089  RH  075%=      5-min Rain = 0
KFR1 141247Z 19011KT M05/M09 A3027 RMK A01 T10511089  RH  075%=      5-min Rain = 0
KFR1 141248Z 19014KT M05/M09 A3027 RMK A01 T10511089  RH  075%=      5-min Rain = 0
KFR1 141249Z 19011KT M05/M09 A3027 RMK A01 T10511088  RH  075%=      5-min Rain = 0
KFR1 141250Z 19015KT M05/M09 A3027 RMK A01 T10511087  RH  076%=      5-min Rain = 0
KFR1 141251Z 19015KT M05/M09 A3027 RMK A01 T10511087  RH  076%=      5-min Rain = 0
KFR1 141252Z 19012KT M05/M09 A3027 RMK A01 T10511087  RH  076%=      5-min Rain = 0
KFR1 141253Z 19011KT M05/M09 A3027 RMK A01 T10511086  RH  076%=      5-min Rain = 0
KFR1 141254Z 19011KT M05/M09 A3027 RMK A01 T10511086  RH  076%=      5-min Rain = 0
KFR1 141255Z 19013KT M05/M09 A3027 RMK A01 T10511086  RH  076%=      5-min Rain = 0
KFR1 141256Z 19015KT M05/M09 A3027 RMK A01 T10501086  RH  076%=      5-min Rain = 0
KFR1 141257Z 20014KT M05/M09 A3027 RMK A01 T10501085  RH  077%=      5-min Rain = 0
KFR1 141258Z 19013KT M05/M09 A3027 RMK A01 T10511085  RH  077%=      5-min Rain = 0
KFR1 141259Z 19013KT M05/M08 A3027 RMK A01 T10501084  RH  077%=      5-min Rain = 0
KFR1 141300Z 20013KT M05/M09 A3027 RMK A01 T10501085  RH  077%=      5-min Rain = 0
KFR1 141301Z 20011KT M05/M09 A3027 RMK A01 T10501085  RH  077%=      5-min Rain = 0
KFR1 141302Z 19009KT M05/M09 A3027 RMK A01 T10501085  RH  076%=      5-min Rain = 0
KFR1 141303Z 19011KT M05/M09 A3027 RMK A01 T10501085  RH  076%=      5-min Rain = 0
KFR1 141304Z 19014KT M05/M09 A3027 RMK A01 T10501085  RH  076%=      5-min Rain = 0
KFR1 141305Z 20015KT M05/M09 A3027 RMK A01 T10491085  RH  076%=      5-min Rain = 0
KFR1 141306Z 20014KT M05/M09 A3027 RMK A01 T10501085  RH  076%=      5-min Rain = 0
KFR1 141307Z 19013KT M05/M08 A3027 RMK A01 T10501084  RH  077%=      5-min Rain = 0
KFR1 141308Z 19012KT M05/M08 A3027 RMK A01 T10491084  RH  077%=      5-min Rain = 0
KFR1 141309Z 20013KT M05/M08 A3027 RMK A01 T10491084  RH  077%=      5-min Rain = 0
KFR1 141310Z 20014KT M05/M08 A3027 RMK A01 T10491084  RH  077%=      5-min Rain = 0
KFR1 141311Z 20013KT M05/M08 A3027 RMK A01 T10501084  RH  077%=      5-min Rain = 0
KFR1 141312Z 19012KT M05/M08 A3027 RMK A01 T10501084  RH  077%=      5-min Rain = 0
KFR1 141313Z 20013G18KT M05/M09 A3027 RMK A01 T10501085  RH  077%=      5-min Rain = 0
KFR1 141314Z 20014G19KT M05/M09 A3027 RMK A01 T10491085  RH  076%=      5-min Rain = 0
KFR1 141315Z 19016KT M05/M09 A3027 RMK A01 T10501087  RH  076%=      5-min Rain = 0
KFR1 141316Z 19016KT M05/M09 A3027 RMK A01 T10501087  RH  075%=      5-min Rain = 0
KFR1 141317Z 19016KT M05/M09 A3026 RMK A01 T10501088  RH  075%=      5-min Rain = 0
KFR1 141318Z 19014KT M05/M09 A3027 RMK A01 T10511089  RH  075%=      5-min Rain = 0
KFR1 141319Z 20015KT M05/M09 A3027 RMK A01 T10511089  RH  075%=      5-min Rain = 0
KFR1 141320Z 20017KT M05/M09 A3027 RMK A01 T10511090  RH  074%=      5-min Rain = 0
KFR1 141321Z 20017KT M05/M09 A3027 RMK A01 T10511091  RH  074%=      5-min Rain = 0
KFR1 141322Z 20016KT M05/M09 A3027 RMK A01 T10511091  RH  073%=      5-min Rain = 0
KFR1 141323Z 20014KT M05/M09 A3027 RMK A01 T10511091  RH  073%=      5-min Rain = 0
KFR1 141324Z 19016KT M05/M09 A3026 RMK A01 T10511092  RH  073%=      5-min Rain = 0
KFR1 141325Z 19016KT M05/M09 A3027 RMK A01 T10511092  RH  073%=      5-min Rain = 0
KFR1 141326Z 19014KT M05/M09 A3027 RMK A01 T10511092  RH  073%=      5-min Rain = 0
KFR1 141327Z 20016KT M05/M09 A3027 RMK A01 T10511093  RH  072%=      5-min Rain = 0
KFR1 141328Z 20012KT M05/M09 A3027 RMK A01 T10511093  RH  072%=      5-min Rain = 0
KFR1 141329Z 20012KT M05/M09 A3027 RMK A01 T10511092  RH  073%=      5-min Rain = 0
KFR1 141330Z 20012KT M05/M09 A3027 RMK A01 T10511093  RH  072%=      5-min Rain = 0
KFR1 141331Z 19013KT M05/M09 A3027 RMK A01 T10501093  RH  072%=      5-min Rain = 0
KFR1 141332Z 19014KT M05/M09 A3027 RMK A01 T10501094  RH  072%=      5-min Rain = 0
KFR1 141333Z 19015KT M05/M09 A3027 RMK A01 T10501094  RH  072%=      5-min Rain = 0
KFR1 141334Z 19014KT M05/M09 A3027 RMK A01 T10501093  RH  072%=      5-min Rain = 0
KFR1 141335Z 18017KT M05/M09 A3027 RMK A01 T10501093  RH  072%=      5-min Rain = 0
KFR1 141336Z 19015KT M05/M09 A3027 RMK A01 T10511093  RH  072%=      5-min Rain = 0
KFR1 141337Z 19015KT M05/M09 A3027 RMK A01 T10511093  RH  073%=      5-min Rain = 0
KFR1 141338Z 19014KT M05/M09 A3027 RMK A01 T10511093  RH  073%=      5-min Rain = 0
KFR1 141339Z 19013KT M05/M09 A3027 RMK A01 T10511093  RH  073%=      5-min Rain = 0
KFR1 141340Z 19015KT M05/M09 A3027 RMK A01 T10511092  RH  073%=      5-min Rain = 0
KFR1 141341Z 19013KT M05/M09 A3027 RMK A01 T10511091  RH  073%=      5-min Rain = 0
KFR1 141342Z 19010KT M05/M09 A3027 RMK A01 T10511091  RH  073%=      5-min Rain = 0
KFR1 141343Z 19010KT M05/M09 A3027 RMK A01 T10511091  RH  073%=      5-min Rain = 0
KFR1 141344Z 19010KT M05/M09 A3027 RMK A01 T10501091  RH  073%=      5-min Rain = 0
KFR1 141345Z 20011KT M05/M09 A3027 RMK A01 T10511091  RH  073%=      5-min Rain = 0
KFR1 141346Z 19013KT M05/M09 A3027 RMK A01 T10501091  RH  073%=      5-min Rain = 0
KFR1 141347Z 19014KT M05/M09 A3027 RMK A01 T10501091  RH  073%=      5-min Rain = 0
KFR1 141348Z 19014KT M05/M09 A3027 RMK A01 T10501091  RH  073%=      5-min Rain = 0
KFR1 141349Z 19011KT M05/M09 A3027 RMK A01 T10501091  RH  073%=      5-min Rain = 0
KFR1 141350Z 19011KT M05/M09 A3027 RMK A01 T10511091  RH  073%=      5-min Rain = 0
KFR1 141351Z 19014KT M05/M09 A3027 RMK A01 T10501091  RH  073%=      5-min Rain = 0
KFR1 141352Z 19015KT M05/M09 A3027 RMK A01 T10501091  RH  073%=      5-min Rain = 0
KFR1 141353Z 19012KT M05/M09 A3027 RMK A01 T10501092  RH  073%=      5-min Rain = 0
KFR1 141354Z 18011KT M05/M09 A3027 RMK A01 T10511092  RH  073%=      5-min Rain = 0
KFR1 141355Z 19013KT M05/M09 A3027 RMK A01 T10501092  RH  072%=      5-min Rain = 0
KFR1 141356Z 19012KT M05/M09 A3027 RMK A01 T10501092  RH  072%=      5-min Rain = 0
KFR1 141357Z 18012KT M05/M09 A3027 RMK A01 T10501092  RH  072%=      5-min Rain = 0
KFR1 141358Z 18012KT M05/M09 A3027 RMK A01 T10501092  RH  072%=      5-min Rain = 0
KFR1 141359Z 19014KT M05/M09 A3027 RMK A01 T10501092  RH  072%=      5-min Rain = 0
KFR1 141400Z 19011KT M05/M09 A3027 RMK A01 T10501092  RH  072%=      5-min Rain = 0
KFR1 141401Z 19012KT M05/M09 A3028 RMK A01 T10501092  RH  072%=      5-min Rain = 0
KFR1 141402Z 19015KT M05/M09 A3027 RMK A01 T10501092  RH  072%=      5-min Rain = 0
KFR1 141403Z 18013KT M05/M09 A3027 RMK A01 T10491091  RH  072%=      5-min Rain = 0
KFR1 141404Z 19011KT M05/M09 A3028 RMK A01 T10491092  RH  072%=      5-min Rain = 0
KFR1 141405Z 19011KT M05/M09 A3027 RMK A01 T10491092  RH  072%=      5-min Rain = 0
KFR1 141406Z 19012KT M05/M09 A3027 RMK A01 T10501092  RH  072%=      5-min Rain = 0
KFR1 141407Z 18013KT M05/M09 A3028 RMK A01 T10501092  RH  072%=      5-min Rain = 0
KFR1 141408Z 19013KT M05/M09 A3028 RMK A01 T10501092  RH  072%=      5-min Rain = 0
KFR1 141409Z 19015KT M05/M09 A3027 RMK A01 T10491092  RH  072%=      5-min Rain = 0
KFR1 141410Z 19015G20KT M05/M09 A3028 RMK A01 T10501092  RH  072%=      5-min Rain = 0
KFR1 141411Z 19016KT M05/M09 A3028 RMK A01 T10501092  RH  072%=      5-min Rain = 0
KFR1 141412Z 19015KT M05/M09 A3027 RMK A01 T10501092  RH  072%=      5-min Rain = 0
KFR1 141413Z 19015KT M05/M09 A3027 RMK A01 T10491092  RH  072%=      5-min Rain = 0
KFR1 141414Z 19012KT M05/M09 A3028 RMK A01 T10491092  RH  072%=      5-min Rain = 0
KFR1 141415Z 18013KT M05/M09 A3028 RMK A01 T10491092  RH  072%=      5-min Rain = 0
KFR1 141416Z 19012G17KT M05/M09 A3028 RMK A01 T10491091  RH  072%=      5-min Rain = 0
KFR1 141417Z 19016KT M05/M09 A3028 RMK A01 T10491091  RH  073%=      5-min Rain = 0
KFR1 141418Z 19012KT M05/M09 A3028 RMK A01 T10491091  RH  072%=      5-min Rain = 0
KFR1 141419Z 19011KT M05/M09 A3028 RMK A01 T10491091  RH  072%=      5-min Rain = 0
KFR1 141420Z 19013KT M05/M09 A3028 RMK A01 T10491091  RH  072%=      5-min Rain = 0
KFR1 141421Z 18012KT M05/M09 A3028 RMK A01 T10491091  RH  072%=      5-min Rain = 0
KFR1 141422Z 18011KT M05/M09 A3028 RMK A01 T10491091  RH  072%=      5-min Rain = 0
KFR1 141423Z 19012KT M05/M09 A3028 RMK A01 T10491091  RH  072%=      5-min Rain = 0
KFR1 141424Z 19012KT M05/M09 A3028 RMK A01 T10491091  RH  072%=      5-min Rain = 0
KFR1 141425Z 19011KT M05/M09 A3028 RMK A01 T10491091  RH  072%=      5-min Rain = 0
KFR1 141426Z 19010KT M05/M09 A3028 RMK A01 T10481090  RH  072%=      5-min Rain = 0
KFR1 141427Z 19012G17KT M05/M09 A3028 RMK A01 T10481090  RH  072%=      5-min Rain = 0
KFR1 141428Z 19013KT M05/M09 A3028 RMK A01 T10481090  RH  072%=      5-min Rain = 0
KFR1 141429Z 19010KT M05/M09 A3028 RMK A01 T10491091  RH  072%=      5-min Rain = 0
KFR1 141430Z 19010KT M05/M09 A3028 RMK A01 T10481090  RH  073%=      5-min Rain = 0
KFR1 141431Z 19010KT M05/M09 A3028 RMK A01 T10481090  RH  073%=      5-min Rain = 0
KFR1 141432Z 19011KT M05/M09 A3028 RMK A01 T10481089  RH  073%=      5-min Rain = 0
KFR1 141433Z 19013KT M05/M09 A3028 RMK A01 T10471089  RH  073%=      5-min Rain = 0
KFR1 141434Z 19011G19KT M05/M09 A3028 RMK A01 T10471089  RH  072%=      5-min Rain = 0
KFR1 141435Z 19016KT M05/M09 A3028 RMK A01 T10471089  RH  073%=      5-min Rain = 0
KFR1 141436Z 19015KT M05/M09 A3028 RMK A01 T10471089  RH  073%=      5-min Rain = 0
KFR1 141437Z 19015KT M05/M09 A3028 RMK A01 T10481089  RH  073%=      5-min Rain = 0
KFR1 141438Z 19014KT M05/M09 A3028 RMK A01 T10481088  RH  073%=      5-min Rain = 0
KFR1 141439Z 18013KT M05/M09 A3028 RMK A01 T10471087  RH  074%=      5-min Rain = 0
KFR1 141440Z 19014KT M05/M09 A3028 RMK A01 T10471087  RH  074%=      5-min Rain = 0
KFR1 141441Z 19014KT M05/M09 A3027 RMK A01 T10461086  RH  074%=      5-min Rain = 0
KFR1 141442Z 19015KT M05/M09 A3027 RMK A01 T10461086  RH  074%=      5-min Rain = 0
KFR1 141443Z 19015KT M05/M09 A3027 RMK A01 T10461086  RH  074%=      5-min Rain = 0
KFR1 141444Z 19013KT M05/M09 A3027 RMK A01 T10461085  RH  074%=      5-min Rain = 0
KFR1 141445Z 19015KT M05/M09 A3027 RMK A01 T10461085  RH  074%=      5-min Rain = 0
KFR1 141446Z 18015KT M05/M08 A3027 RMK A01 T10461084  RH  074%=      5-min Rain = 0
KFR1 141447Z 19013G18KT M05/M08 A3027 RMK A01 T10451083  RH  075%=      5-min Rain = 0
KFR1 141448Z 19015G20KT M05/M08 A3027 RMK A01 T10451083  RH  075%=      5-min Rain = 0
KFR1 141449Z 19017KT M05/M08 A3027 RMK A01 T10451083  RH  075%=      5-min Rain = 0
KFR1 141450Z 19013G18KT M04/M08 A3027 RMK A01 T10441082  RH  075%=      5-min Rain = 0
KFR1 141451Z 18015KT M05/M08 A3027 RMK A01 T10451082  RH  075%=      5-min Rain = 0
KFR1 141452Z 19015KT M05/M08 A3027 RMK A01 T10451082  RH  075%=      5-min Rain = 0
KFR1 141453Z 20014KT M05/M08 A3027 RMK A01 T10451082  RH  075%=      5-min Rain = 0
KFR1 141454Z 19013KT M04/M08 A3027 RMK A01 T10441082  RH  075%=      5-min Rain = 0
KFR1 141455Z 19012KT M04/M08 A3027 RMK A01 T10441082  RH  075%=      5-min Rain = 0
KFR1 141456Z 19012G17KT M04/M08 A3027 RMK A01 T10441082  RH  075%=      5-min Rain = 0
KFR1 141457Z 19011G16KT M04/M08 A3027 RMK A01 T10431081  RH  075%=      5-min Rain = 0
KFR1 141458Z 19012KT M04/M08 A3027 RMK A01 T10431080  RH  075%=      5-min Rain = 0
KFR1 141459Z 19011KT M04/M08 A3027 RMK A01 T10431080  RH  075%=      5-min Rain = 0
KFR1 141500Z 19013KT M04/M08 A3027 RMK A01 T10421080  RH  075%=      5-min Rain = 0
KFR1 141501Z 19014KT M04/M08 A3027 RMK A01 T10421079  RH  075%=      5-min Rain = 0
KFR1 141502Z 19015KT M04/M08 A3027 RMK A01 T10421079  RH  075%=      5-min Rain = 0
KFR1 141503Z 19016KT M04/M08 A3027 RMK A01 T10421078  RH  075%=      5-min Rain = 0
KFR1 141504Z 19017KT M04/M08 A3027 RMK A01 T10421079  RH  076%=      5-min Rain = 0
KFR1 141505Z 19015G20KT M04/M08 A3027 RMK A01 T10421079  RH  076%=      5-min Rain = 0
KFR1 141506Z 18016KT M04/M08 A3027 RMK A01 T10421078  RH  076%=      5-min Rain = 0
KFR1 141507Z 18014KT M04/M08 A3027 RMK A01 T10411078  RH  076%=      5-min Rain = 0
KFR1 141508Z 18015KT M04/M08 A3027 RMK A01 T10411078  RH  075%=      5-min Rain = 0
KFR1 141509Z 19015KT M04/M08 A3027 RMK A01 T10401078  RH  075%=      5-min Rain = 0
KFR1 141510Z 19014G19KT M04/M08 A3027 RMK A01 T10401078  RH  075%=      5-min Rain = 0
KFR1 141511Z 19015KT M04/M08 A3027 RMK A01 T10401077  RH  075%=      5-min Rain = 0
KFR1 141512Z 19016KT M04/M08 A3027 RMK A01 T10401077  RH  075%=      5-min Rain = 0
KFR1 141513Z 19016KT M04/M08 A3027 RMK A01 T10391077  RH  075%=      5-min Rain = 0
KFR1 141514Z 19014KT M04/M08 A3027 RMK A01 T10391077  RH  075%=      5-min Rain = 0
KFR1 141515Z 19015KT M04/M08 A3027 RMK A01 T10391077  RH  075%=      5-min Rain = 0
KFR1 141516Z 19015KT M04/M08 A3027 RMK A01 T10391077  RH  075%=      5-min Rain = 0
KFR1 141517Z 19015KT M04/M08 A3027 RMK A01 T10391077  RH  075%=      5-min Rain = 0
KFR1 141518Z 20017KT M04/M08 A3027 RMK A01 T10391077  RH  075%=      5-min Rain = 0
KFR1 141519Z 19013KT M04/M08 A3027 RMK A01 T10391076  RH  075%=      5-min Rain = 0
KFR1 141520Z 18015KT M04/M08 A3027 RMK A01 T10381076  RH  075%=      5-min Rain = 0
KFR1 141521Z 19016KT M04/M08 A3027 RMK A01 T10381075  RH  075%=      5-min Rain = 0
KFR1 141522Z 19018KT M04/M08 A3027 RMK A01 T10381076  RH  075%=      5-min Rain = 0
KFR1 141523Z 19016KT M04/M08 A3027 RMK A01 T10381075  RH  075%=      5-min Rain = 0
KFR1 141524Z 18017KT M04/M08 A3027 RMK A01 T10381075  RH  075%=      5-min Rain = 0
KFR1 141525Z 19014G19KT M04/M08 A3027 RMK A01 T10381076  RH  075%=      5-min Rain = 0
KFR1 141526Z 18015KT M04/M08 A3027 RMK A01 T10371075  RH  075%=      5-min Rain = 0
KFR1 141527Z 19014KT M04/M07 A3027 RMK A01 T10371074  RH  075%=      5-min Rain = 0
KFR1 141528Z 19015KT M04/M07 A3027 RMK A01 T10361073  RH  075%=      5-min Rain = 0
KFR1 141529Z 19017KT M04/M07 A3027 RMK A01 T10361074  RH  075%=      5-min Rain = 0
KFR1 141530Z 19014G19KT M04/M07 A3027 RMK A01 T10361073  RH  075%=      5-min Rain = 0
KFR1 141531Z 19017KT M04/M07 A3027 RMK A01 T10361073  RH  076%=      5-min Rain = 0
KFR1 141532Z 19016KT M04/M07 A3027 RMK A01 T10361073  RH  076%=      5-min Rain = 0
KFR1 141533Z 19017KT M04/M07 A3027 RMK A01 T10361073  RH  076%=      5-min Rain = 0
KFR1 141534Z 19017KT M04/M07 A3027 RMK A01 T10361072  RH  076%=      5-min Rain = 0
KFR1 141535Z 19016KT M04/M07 A3027 RMK A01 T10361072  RH  076%=      5-min Rain = 0
KFR1 141536Z 19015KT M04/M07 A3027 RMK A01 T10351072  RH  076%=      5-min Rain = 0
KFR1 141537Z 19013KT M04/M07 A3027 RMK A01 T10351072  RH  076%=      5-min Rain = 0
KFR1 141538Z 19014KT M04/M07 A3027 RMK A01 T10351071  RH  076%=      5-min Rain = 0
KFR1 141539Z 19014G19KT M03/M07 A3027 RMK A01 T10341071  RH  076%=      5-min Rain = 0
KFR1 141540Z 19014G19KT M03/M07 A3027 RMK A01 T10341071  RH  076%=      5-min Rain = 0
KFR1 141541Z 19016KT M03/M07 A3027 RMK A01 T10331070  RH  076%=      5-min Rain = 0
KFR1 141542Z 19017KT M03/M07 A3027 RMK A01 T10331070  RH  076%=      5-min Rain = 0
KFR1 141543Z 20012KT M03/M07 A3027 RMK A01 T10341070  RH  076%=      5-min Rain = 0
KFR1 141544Z 19014KT M03/M07 A3027 RMK A01 T10331069  RH  076%=      5-min Rain = 0
KFR1 141545Z 20015KT M03/M07 A3027 RMK A01 T10331069  RH  076%=      5-min Rain = 0
KFR1 141546Z 19013KT M03/M07 A3027 RMK A01 T10331069  RH  076%=      5-min Rain = 0
KFR1 141547Z 19017KT M03/M07 A3027 RMK A01 T10311068  RH  076%=      5-min Rain = 0
KFR1 141548Z 19013KT M03/M07 A3027 RMK A01 T10311068  RH  075%=      5-min Rain = 0
KFR1 141549Z 19015KT M03/M07 A3027 RMK A01 T10311068  RH  075%=      5-min Rain = 0
KFR1 141550Z 19014KT M03/M07 A3027 RMK A01 T10311069  RH  075%=      5-min Rain = 0
KFR1 141551Z 19012KT M03/M07 A3027 RMK A01 T10311068  RH  075%=      5-min Rain = 0
KFR1 141552Z 19011KT M03/M07 A3027 RMK A01 T10301068  RH  075%=      5-min Rain = 0
KFR1 141553Z 20014KT M03/M07 A3027 RMK A01 T10291067  RH  075%=      5-min Rain = 0
KFR1 141554Z 20013KT M03/M07 A3027 RMK A01 T10291067  RH  075%=      5-min Rain = 0
KFR1 141555Z 20012KT M03/M07 A3027 RMK A01 T10291066  RH  075%=      5-min Rain = 0
KFR1 141556Z 19013G18KT M03/M07 A3027 RMK A01 T10281065  RH  076%=      5-min Rain = 0
KFR1 141557Z 19016KT M03/M07 A3027 RMK A01 T10271065  RH  076%=      5-min Rain = 0
KFR1 141558Z 20015KT M03/M06 A3027 RMK A01 T10281064  RH  076%=      5-min Rain = 0
KFR1 141559Z 19017KT M03/M06 A3027 RMK A01 T10281064  RH  076%=      5-min Rain = 0
KFR1 141600Z 20016KT M03/M06 A3027 RMK A01 T10281064  RH  076%=      5-min Rain = 0
KFR1 141601Z 19017KT M03/M06 A3027 RMK A01 T10281063  RH  076%=      5-min Rain = 0
KFR1 141602Z 20013KT M03/M06 A3027 RMK A01 T10271062  RH  077%=      5-min Rain = 0
KFR1 141603Z 20014KT M03/M06 A3027 RMK A01 T10261061  RH  077%=      5-min Rain = 0
KFR1 141604Z 21014KT M03/M06 A3026 RMK A01 T10261061  RH  077%=      5-min Rain = 0
KFR1 141605Z 20013KT M03/M06 A3027 RMK A01 T10261061  RH  077%=      5-min Rain = 0
KFR1 141606Z 20012KT M03/M06 A3027 RMK A01 T10261061  RH  077%=      5-min Rain = 0
KFR1 141607Z 20013KT M03/M06 A3027 RMK A01 T10251060  RH  077%=      5-min Rain = 0
KFR1 141608Z 21012KT M02/M06 A3026 RMK A01 T10241059  RH  077%=      5-min Rain = 0
KFR1 141609Z 20013KT M02/M06 A3026 RMK A01 T10241058  RH  078%=      5-min Rain = 0
KFR1 141610Z 21014G19KT M02/M06 A3026 RMK A01 T10241058  RH  078%=      5-min Rain = 0
KFR1 141611Z 21015KT M02/M06 A3026 RMK A01 T10241058  RH  078%=      5-min Rain = 0
KFR1 141612Z 21017KT M02/M06 A3026 RMK A01 T10241057  RH  078%=      5-min Rain = 0
KFR1 141613Z 21017KT M02/M06 A3026 RMK A01 T10241057  RH  078%=      5-min Rain = 0
KFR1 141614Z 21014KT M02/M06 A3026 RMK A01 T10241057  RH  079%=      5-min Rain = 0
KFR1 141615Z 20013KT M02/M06 A3026 RMK A01 T10241056  RH  079%=      5-min Rain = 0
KFR1 141616Z 20012KT M02/M06 A3026 RMK A01 T10231056  RH  078%=      5-min Rain = 0
KFR1 141617Z 21016G21KT M02/M06 A3026 RMK A01 T10221056  RH  078%=      5-min Rain = 0
KFR1 141618Z 20012KT M02/M06 A3026 RMK A01 T10221056  RH  078%=      5-min Rain = 0
KFR1 141619Z 20016G21KT M02/M06 A3025 RMK A01 T10221056  RH  078%=      5-min Rain = 0
KFR1 141620Z 21015KT M02/M06 A3026 RMK A01 T10221056  RH  078%=      5-min Rain = 0
KFR1 141621Z 21017KT M02/M06 A3026 RMK A01 T10221055  RH  078%=      5-min Rain = 0
KFR1 141622Z 21016KT M02/M06 A3026 RMK A01 T10221055  RH  078%=      5-min Rain = 0
KFR1 141623Z 20014KT M02/M05 A3026 RMK A01 T10221054  RH  078%=      5-min Rain = 0
KFR1 141624Z 21016KT M02/M05 A3025 RMK A01 T10211053  RH  079%=      5-min Rain = 0
KFR1 141625Z 21017G22KT M02/M05 A3025 RMK A01 T10211053  RH  078%=      5-min Rain = 0
KFR1 141626Z 21020KT M02/M05 A3025 RMK A01 T10211054  RH  078%=      5-min Rain = 0
KFR1 141627Z 21015G20KT M02/M05 A3025 RMK A01 T10211054  RH  079%=      5-min Rain = 0
KFR1 141628Z 21016G21KT M02/M05 A3025 RMK A01 T10211053  RH  079%=      5-min Rain = 0
KFR1 141629Z 21016KT M02/M05 A3025 RMK A01 T10201052  RH  079%=      5-min Rain = 0
KFR1 141630Z 21016KT M02/M05 A3025 RMK A01 T10201052  RH  078%=      5-min Rain = 0
KFR1 141631Z 21014KT M02/M05 A3025 RMK A01 T10201053  RH  078%=      5-min Rain = 0
KFR1 141632Z 21012KT M02/M05 A3025 RMK A01 T10201053  RH  078%=      5-min Rain = 0
KFR1 141633Z 20012KT M02/M05 A3025 RMK A01 T10191051  RH  078%=      5-min Rain = 0
KFR1 141634Z 21014G20KT M02/M05 A3025 RMK A01 T10171050  RH  078%=      5-min Rain = 0
KFR1 141635Z 21016KT M02/M05 A3025 RMK A01 T10171051  RH  077%=      5-min Rain = 0
KFR1 141636Z 21016KT M02/M05 A3025 RMK A01 T10181052  RH  078%=      5-min Rain = 0
KFR1 141637Z 20016KT M02/M05 A3025 RMK A01 T10191052  RH  078%=      5-min Rain = 0
KFR1 141638Z 21015KT M02/M05 A3025 RMK A01 T10191051  RH  078%=      5-min Rain = 0
KFR1 141639Z 21017KT M02/M05 A3025 RMK A01 T10191051  RH  079%=      5-min Rain = 0
KFR1 141640Z 21014KT M02/M05 A3025 RMK A01 T10181051  RH  079%=      5-min Rain = 0
KFR1 141641Z 21014KT M02/M05 A3025 RMK A01 T10181050  RH  079%=      5-min Rain = 0
KFR1 141642Z 21016KT M02/M05 A3025 RMK A01 T10171049  RH  079%=      5-min Rain = 0
KFR1 141643Z 21013KT M02/M05 A3025 RMK A01 T10171050  RH  078%=      5-min Rain = 0
KFR1 141644Z 20015KT M02/M05 A3025 RMK A01 T10171049  RH  078%=      5-min Rain = 0
KFR1 141645Z 20017KT M02/M05 A3025 RMK A01 T10161049  RH  078%=      5-min Rain = 0
KFR1 141646Z 20016KT M02/M05 A3025 RMK A01 T10161050  RH  078%=      5-min Rain = 0
KFR1 141647Z 20015KT M02/M05 A3024 RMK A01 T10161050  RH  078%=      5-min Rain = 0
KFR1 141648Z 21014KT M02/M05 A3025 RMK A01 T10161049  RH  078%=      5-min Rain = 0
KFR1 141649Z 20016KT M02/M05 A3024 RMK A01 T10151049  RH  078%=      5-min Rain = 0
KFR1 141650Z 20014KT M02/M05 A3024 RMK A01 T10151049  RH  078%=      5-min Rain = 0
KFR1 141651Z 21016KT M02/M05 A3024 RMK A01 T10151048  RH  078%=      5-min Rain = 0
KFR1 141652Z 21017KT M02/M05 A3024 RMK A01 T10151048  RH  078%=      5-min Rain = 0
KFR1 141653Z 21017KT M02/M05 A3024 RMK A01 T10151048  RH  078%=      5-min Rain = 0
KFR1 141654Z 21015KT M02/M05 A3024 RMK A01 T10151047  RH  079%=      5-min Rain = 0
KFR1 141655Z 21017KT M01/M05 A3024 RMK A01 T10141047  RH  079%=      5-min Rain = 0
KFR1 141656Z 22017KT M01/M05 A3024 RMK A01 T10141046  RH  079%=      5-min Rain = 0
KFR1 141657Z 21017KT M01/M05 A3024 RMK A01 T10141046  RH  079%=      5-min Rain = 0
KFR1 141658Z 21014KT M01/M05 A3024 RMK A01 T10141046  RH  079%=      5-min Rain = 0
KFR1 141659Z 21012G17KT M01/M05 A3024 RMK A01 T10131045  RH  079%=      5-min Rain = 0
KFR1 141700Z 20016KT M01/M04 A3024 RMK A01 T10121044  RH  079%=      5-min Rain = 0
KFR1 141701Z 21017KT M01/M05 A3024 RMK A01 T10121045  RH  079%=      5-min Rain = 0
KFR1 141702Z 21014KT M01/M05 A3024 RMK A01 T10131045  RH  078%=      5-min Rain = 0
KFR1 141703Z 20013KT M01/M05 A3024 RMK A01 T10131045  RH  079%=      5-min Rain = 0
KFR1 141704Z 20014KT M01/M04 A3024 RMK A01 T10121044  RH  079%=      5-min Rain = 0
KFR1 141705Z 21014KT M01/M04 A3024 RMK A01 T10111043  RH  079%=      5-min Rain = 0
KFR1 141706Z 21016KT M01/M04 A3024 RMK A01 T10101043  RH  078%=      5-min Rain = 0
KFR1 141707Z 21017KT M01/M04 A3024 RMK A01 T10101043  RH  078%=      5-min Rain = 0
KFR1 141708Z 21015G21KT M01/M04 A3024 RMK A01 T10111043  RH  079%=      5-min Rain = 0
KFR1 141709Z 21016KT M01/M04 A3024 RMK A01 T10111043  RH  079%=      5-min Rain = 0
KFR1 141710Z 21015KT M01/M04 A3024 RMK A01 T10111043  RH  079%=      5-min Rain = 0
KFR1 141711Z 20013KT M01/M04 A3024 RMK A01 T10111042  RH  079%=      5-min Rain = 0
KFR1 141712Z 21015KT M01/M04 A3024 RMK A01 T10091041  RH  079%=      5-min Rain = 0
KFR1 141713Z 21017KT M01/M04 A3024 RMK A01 T10091041  RH  079%=      5-min Rain = 0
KFR1 141714Z 20015KT M01/M04 A3024 RMK A01 T10091042  RH  079%=      5-min Rain = 0
KFR1 141715Z 21014KT M01/M04 A3024 RMK A01 T10091042  RH  079%=      5-min Rain = 0
KFR1 141716Z 21012KT M01/M04 A3024 RMK A01 T10091041  RH  079%=      5-min Rain = 0
KFR1 141717Z 20015KT M01/M04 A3024 RMK A01 T10081040  RH  079%=      5-min Rain = 0
KFR1 141718Z 20015KT M01/M04 A3024 RMK A01 T10081041  RH  079%=      5-min Rain = 0
KFR1 141719Z 20014KT M01/M04 A3024 RMK A01 T10081041  RH  079%=      5-min Rain = 0
KFR1 141720Z 21015KT M01/M04 A3024 RMK A01 T10081041  RH  079%=      5-min Rain = 0
KFR1 141721Z 20012KT M01/M04 A3024 RMK A01 T10081040  RH  079%=      5-min Rain = 0
KFR1 141722Z 20015KT M01/M04 A3023 RMK A01 T10081040  RH  079%=      5-min Rain = 0
KFR1 141723Z 20018KT M01/M04 A3023 RMK A01 T10081041  RH  078%=      5-min Rain = 0
KFR1 141724Z 20015G20KT M01/M04 A3023 RMK A01 T10091042  RH  078%=      5-min Rain = 0
KFR1 141725Z 20014KT M01/M04 A3023 RMK A01 T10081040  RH  079%=      5-min Rain = 0
KFR1 141726Z 20014KT M01/M04 A3023 RMK A01 T10081040  RH  079%=      5-min Rain = 0
KFR1 141727Z 20013KT M01/M04 A3023 RMK A01 T10071039  RH  079%=      5-min Rain = 0
KFR1 141728Z 21017KT M01/M04 A3023 RMK A01 T10071039  RH  079%=      5-min Rain = 0
KFR1 141729Z 21015KT M01/M04 A3023 RMK A01 T10081040  RH  079%=      5-min Rain = 0
KFR1 141730Z 21015KT M01/M04 A3023 RMK A01 T10071039  RH  079%=      5-min Rain = 0
KFR1 141731Z 20014KT M01/M04 A3023 RMK A01 T10071038  RH  079%=      5-min Rain = 0
KFR1 141732Z 21016KT M01/M04 A3023 RMK A01 T10061037  RH  079%=      5-min Rain = 0
KFR1 141733Z 20014KT M01/M04 A3023 RMK A01 T10061038  RH  079%=      5-min Rain = 0
KFR1 141734Z 20016KT M01/M04 A3023 RMK A01 T10061037  RH  079%=      5-min Rain = 0
KFR1 141735Z 20014KT M01/M04 A3023 RMK A01 T10061038  RH  079%=      5-min Rain = 0
KFR1 141736Z 20012KT M01/M04 A3023 RMK A01 T10051036  RH  079%=      5-min Rain = 0
KFR1 141737Z 20014KT M00/M04 A3023 RMK A01 T10041036  RH  079%=      5-min Rain = 0
KFR1 141738Z 21014KT M00/M04 A3023 RMK A01 T10041036  RH  079%=      5-min Rain = 0
KFR1 141739Z 21013KT M00/M04 A3023 RMK A01 T10031036  RH  079%=      5-min Rain = 0
KFR1 141740Z 20012KT M00/M04 A3023 RMK A01 T10031036  RH  079%=      5-min Rain = 0
KFR1 141741Z 20012KT M00/M04 A3023 RMK A01 T10031035  RH  079%=      5-min Rain = 0
KFR1 141742Z 20013KT M00/M03 A3023 RMK A01 T10021034  RH  079%=      5-min Rain = 0
KFR1 141743Z 20012KT M00/M03 A3023 RMK A01 T10011034  RH  079%=      5-min Rain = 0
KFR1 141744Z 21015G20KT M00/M03 A3022 RMK A01 T10011034  RH  079%=      5-min Rain = 0
KFR1 141745Z 20015KT M00/M03 A3022 RMK A01 T10021034  RH  079%=      5-min Rain = 0
KFR1 141746Z 20015KT M00/M03 A3022 RMK A01 T10021034  RH  079%=      5-min Rain = 0
KFR1 141747Z 20016KT M00/M03 A3022 RMK A01 T10021034  RH  079%=      5-min Rain = 0
KFR1 141748Z 21013G18KT M00/M03 A3022 RMK A01 T10021034  RH  079%=      5-min Rain = 0
KFR1 141749Z 22014KT M00/M03 A3022 RMK A01 T10021033  RH  079%=      5-min Rain = 0
KFR1 141750Z 21015KT 00/03 A3022 RMK A01 T00-00-32  RH  079%=      5-min Rain = 0
KFR1 141751Z 21014KT 00/03 A3022 RMK A01 T00-00-32  RH  079%=      5-min Rain = 0
KFR1 141752Z 21013KT 00/03 A3022 RMK A01 T00000-32  RH  079%=      5-min Rain = 0
KFR1 141753Z 21010KT 00/03 A3022 RMK A01 T00-00-32  RH  079%=      5-min Rain = 0
KFR1 141754Z 22014KT 00/M03 A3022 RMK A01 T00011031  RH  079%=      5-min Rain = 0
KFR1 141755Z 22015KT 00/M03 A3022 RMK A01 T00021031  RH  079%=      5-min Rain = 0
KFR1 141756Z 22014G19KT 00/M03 A3021 RMK A01 T00021031  RH  078%=      5-min Rain = 0
KFR1 141757Z 22016KT 00/M03 A3021 RMK A01 T00021031  RH  078%=      5-min Rain = 0
KFR1 141758Z 20013KT 00/M03 A3021 RMK A01 T00021031  RH  078%=      5-min Rain = 0
KFR1 141759Z 21012KT 00/M03 A3021 RMK A01 T00031030  RH  078%=      5-min Rain = 0
KFR1 141800Z 21013KT 00/M03 A3021 RMK A01 T00041030  RH  078%=      5-min Rain = 0
KFR1 141801Z 21018KT 00/M03 A3021 RMK A01 T00041030  RH  078%=      5-min Rain = 0
KFR1 141802Z 21015KT 00/M03 A3021 RMK A01 T00041031  RH  078%=      5-min Rain = 0
KFR1 141803Z 20013KT 00/M03 A3021 RMK A01 T00031030  RH  078%=      5-min Rain = 0
KFR1 141804Z 20016G21KT 00/M03 A3021 RMK A01 T00041029  RH  078%=      5-min Rain = 0
KFR1 141805Z 20016G21KT 01/M03 A302 RMK A01 T00051029  RH  078%=      5-min Rain = 0
KFR1 141806Z 21015G20KT 01/M03 A302 RMK A01 T00051029  RH  078%=      5-min Rain = 0
KFR1 141807Z 21016KT 01/M03 A302 RMK A01 T00051029  RH  078%=      5-min Rain = 0
KFR1 141808Z 20017KT 01/M03 A302 RMK A01 T00051030  RH  077%=      5-min Rain = 0
KFR1 141809Z 21016KT 01/M03 A302 RMK A01 T00051030  RH  077%=      5-min Rain = 0
KFR1 141810Z 21016G23KT 01/M03 A302 RMK A01 T00051029  RH  078%=      5-min Rain = 0
KFR1 141811Z 21019KT 01/M03 A302 RMK A01 T00061029  RH  077%=      5-min Rain = 0
KFR1 141812Z 21015KT 01/M03 A302 RMK A01 T00061029  RH  077%=      5-min Rain = 0
KFR1 141813Z 22016KT 01/M03 A3019 RMK A01 T00061029  RH  077%=      5-min Rain = 0
KFR1 141814Z 21017KT 01/M03 A3019 RMK A01 T00061029  RH  077%=      5-min Rain = 0
KFR1 141815Z 21020KT 01/M03 A3019 RMK A01 T00071029  RH  077%=      5-min Rain = 0
KFR1 141816Z 21017KT 01/M03 A3019 RMK A01 T00071029  RH  077%=      5-min Rain = 0
KFR1 141817Z 21014G19KT 01/M03 A3019 RMK A01 T00071029  RH  077%=      5-min Rain = 0
KFR1 141818Z 21016G21KT 01/M03 A3019 RMK A01 T00081027  RH  077%=      5-min Rain = 0
KFR1 141819Z 21014G19KT 01/M03 A3019 RMK A01 T00091028  RH  077%=      5-min Rain = 0
KFR1 141820Z 21018G24KT 01/M03 A3019 RMK A01 T00101026  RH  077%=      5-min Rain = 0
KFR1 141821Z 22020KT 01/M03 A3019 RMK A01 T00121026  RH  076%=      5-min Rain = 0
KFR1 141822Z 22019G24KT 01/M03 A3019 RMK A01 T00121026  RH  076%=      5-min Rain = 0
KFR1 141823Z 22020G25KT 01/M03 A3019 RMK A01 T00131026  RH  075%=      5-min Rain = 0
KFR1 141824Z 21018KT 01/M03 A3019 RMK A01 T00131025  RH  075%=      5-min Rain = 0
KFR1 141825Z 22018KT 01/M03 A3019 RMK A01 T00141026  RH  075%=      5-min Rain = 0
KFR1 141826Z 21020KT 01/M03 A3018 RMK A01 T00141026  RH  075%=      5-min Rain = 0
KFR1 141827Z 21025KT 01/M03 A3018 RMK A01 T00141026  RH  075%=      5-min Rain = 0
KFR1 141828Z 22021KT 01/M03 A3018 RMK A01 T00131026  RH  075%=      5-min Rain = 0
KFR1 141829Z 22023G28KT 01/M03 A3018 RMK A01 T00141026  RH  075%=      5-min Rain = 0
KFR1 141830Z 22017KT 01/M03 A3018 RMK A01 T00141025  RH  075%=      5-min Rain = 0
KFR1 141831Z 22022KT 02/M03 A3018 RMK A01 T00151025  RH  075%=      5-min Rain = 0
KFR1 141832Z 22021KT 02/M03 A3018 RMK A01 T00151026  RH  075%=      5-min Rain = 0
KFR1 141833Z 22016G21KT 01/M03 A3018 RMK A01 T00141026  RH  075%=      5-min Rain = 0
KFR1 141834Z 22015G20KT 02/M02 A3018 RMK A01 T00151024  RH  075%=      5-min Rain = 0
KFR1 141835Z 21015G20KT 02/M02 A3018 RMK A01 T00171023  RH  074%=      5-min Rain = 0
KFR1 141836Z 21017KT 02/M02 A3018 RMK A01 T00181024  RH  074%=      5-min Rain = 0
KFR1 141837Z 21017KT 02/M03 A3018 RMK A01 T00181025  RH  073%=      5-min Rain = 0
KFR1 141838Z 20015KT 02/M03 A3018 RMK A01 T00171025  RH  073%=      5-min Rain = 0
KFR1 141839Z 21017KT 02/M02 A3018 RMK A01 T00181024  RH  074%=      5-min Rain = 0
KFR1 141840Z 20018KT 02/M03 A3018 RMK A01 T00181025  RH  073%=      5-min Rain = 0
KFR1 141841Z 20018G25KT 02/M03 A3017 RMK A01 T00181025  RH  073%=      5-min Rain = 0
KFR1 141842Z 21022G27KT 02/M03 A3017 RMK A01 T00171025  RH  073%=      5-min Rain = 0
KFR1 141843Z 21018KT 02/M03 A3017 RMK A01 T00161026  RH  074%=      5-min Rain = 0
KFR1 141844Z 21018KT 02/M03 A3018 RMK A01 T00151026  RH  074%=      5-min Rain = 0
KFR1 141845Z 21019KT 02/M03 A3017 RMK A01 T00161025  RH  074%=      5-min Rain = 0
KFR1 141846Z 20020KT 02/M02 A3017 RMK A01 T00171024  RH  074%=      5-min Rain = 0
KFR1 141847Z 20017G23KT 02/M02 A3017 RMK A01 T00181024  RH  074%=      5-min Rain = 0
KFR1 141848Z 21022G27KT 02/M02 A3017 RMK A01 T00191024  RH  074%=      5-min Rain = 0
KFR1 141849Z 21021G27KT 02/M03 A3017 RMK A01 T00171025  RH  074%=      5-min Rain = 0
KFR1 141850Z 21021KT 02/M02 A3017 RMK A01 T00171024  RH  074%=      5-min Rain = 0
KFR1 141851Z 21020KT 02/M03 A3017 RMK A01 T00161025  RH  074%=      5-min Rain = 0
KFR1 141852Z 21020G25KT 02/M02 A3017 RMK A01 T00161024  RH  074%=      5-min Rain = 0
KFR1 141853Z 21017G22KT 02/M02 A3017 RMK A01 T00161024  RH  075%=      5-min Rain = 0
KFR1 141854Z 20018KT 02/M02 A3017 RMK A01 T00181023  RH  074%=      5-min Rain = 0
KFR1 141855Z 21018G23KT 02/M02 A3017 RMK A01 T00191023  RH  074%=      5-min Rain = 0
KFR1 141856Z 21015KT 02/M02 A3017 RMK A01 T00191023  RH  074%=      5-min Rain = 0
KFR1 141857Z 21016KT 02/M02 A3017 RMK A01 T00191023  RH  074%=      5-min Rain = 0
KFR1 141858Z 20017KT 02/M02 A3017 RMK A01 T00191023  RH  074%=      5-min Rain = 0
KFR1 141859Z 21019KT 02/M02 A3017 RMK A01 T00191023  RH  074%=      5-min Rain = 0
KFR1 141900Z 20016KT 02/M02 A3017 RMK A01 T00181023  RH  074%=      5-min Rain = 0
KFR1 141901Z 21017KT 02/M02 A3017 RMK A01 T00181023  RH  074%=      5-min Rain = 0
KFR1 141902Z 21014KT 02/M02 A3017 RMK A01 T00181022  RH  074%=      5-min Rain = 0
KFR1 141903Z 20019G25KT 02/M02 A3017 RMK A01 T00181022  RH  074%=      5-min Rain = 0
KFR1 141904Z 21019G24KT 02/M02 A3017 RMK A01 T00181022  RH  074%=      5-min Rain = 0
KFR1 141905Z 21017KT 02/M02 A3017 RMK A01 T00181023  RH  075%=      5-min Rain = 0
KFR1 141906Z 21014KT 02/M02 A3017 RMK A01 T00181022  RH  075%=      5-min Rain = 0
KFR1 141907Z 21014KT 02/M02 A3017 RMK A01 T00181022  RH  075%=      5-min Rain = 0
KFR1 141908Z 21018KT 02/M02 A3017 RMK A01 T00181022  RH  075%=      5-min Rain = 0
KFR1 141909Z 21016KT 02/M02 A3017 RMK A01 T00181022  RH  075%=      5-min Rain = 0
KFR1 141910Z 20018KT 02/M02 A3016 RMK A01 T00171022  RH  075%=      5-min Rain = 0
KFR1 141911Z 20018KT 02/M02 A3016 RMK A01 T00171022  RH  075%=      5-min Rain = 0
KFR1 141912Z 21014G19KT 02/M02 A3016 RMK A01 T00171021  RH  076%=      5-min Rain = 0
KFR1 141913Z 21019KT 02/M02 A3016 RMK A01 T00181021  RH  075%=      5-min Rain = 0
KFR1 141914Z 21021KT 02/M02 A3016 RMK A01 T00181022  RH  075%=      5-min Rain = 0
KFR1 141915Z 21019KT 02/M02 A3016 RMK A01 T00171022  RH  076%=      5-min Rain = 0
KFR1 141916Z 21016G21KT 02/M02 A3016 RMK A01 T00161022  RH  076%=      5-min Rain = 0
KFR1 141917Z 21018G24KT 02/M02 A3016 RMK A01 T00171021  RH  076%=      5-min Rain = 0
KFR1 141918Z 20015G20KT 02/M02 A3016 RMK A01 T00171020  RH  076%=      5-min Rain = 0
KFR1 141919Z 20017KT 02/M02 A3016 RMK A01 T00181020  RH  076%=      5-min Rain = 0
KFR1 141920Z 20018KT 02/M02 A3015 RMK A01 T00191020  RH  075%=      5-min Rain = 0
KFR1 141921Z 21014KT 02/M02 A3015 RMK A01 T00191020  RH  075%=      5-min Rain = 0
KFR1 141922Z 21017KT 02/M02 A3015 RMK A01 T00201019  RH  075%=      5-min Rain = 0
KFR1 141923Z 21016KT 02/M02 A3015 RMK A01 T00201020  RH  075%=      5-min Rain = 0
KFR1 141924Z 20015KT 02/M02 A3015 RMK A01 T00201020  RH  075%=      5-min Rain = 0
KFR1 141925Z 20015G21KT 02/M02 A3015 RMK A01 T00221018  RH  075%=      5-min Rain = 0
KFR1 141926Z 20014KT 02/M02 A3015 RMK A01 T00231019  RH  074%=      5-min Rain = 0
KFR1 141927Z 20014KT 02/M02 A3015 RMK A01 T00241018  RH  073%=      5-min Rain = 0
KFR1 141928Z 20015KT 02/M02 A3015 RMK A01 T00241019  RH  073%=      5-min Rain = 0
KFR1 141929Z 21016KT 02/M02 A3014 RMK A01 T00241019  RH  073%=      5-min Rain = 0
KFR1 141930Z 20016KT 02/M02 A3014 RMK A01 T00241019  RH  073%=      5-min Rain = 0
KFR1 141931Z 20016KT 03/M02 A3014 RMK A01 T00251018  RH  073%=      5-min Rain = 0
KFR1 141932Z 21017KT 03/M02 A3014 RMK A01 T00261018  RH  073%=      5-min Rain = 0
KFR1 141933Z 21014G20KT 02/M02 A3014 RMK A01 T00241020  RH  073%=      5-min Rain = 0
KFR1 141934Z 21012KT 03/M02 A3014 RMK A01 T00251018  RH  073%=      5-min Rain = 0
KFR1 141935Z 21016G22KT 03/M02 A3014 RMK A01 T00261017  RH  073%=      5-min Rain = 0
KFR1 141936Z 20019KT 03/M02 A3014 RMK A01 T00271018  RH  073%=      5-min Rain = 0
KFR1 141937Z 22017KT 03/M02 A3014 RMK A01 T00251020  RH  073%=      5-min Rain = 0
KFR1 141938Z 22015KT 02/M02 A3014 RMK A01 T00241019  RH  073%=      5-min Rain = 0
KFR1 141939Z 20015KT 03/M02 A3014 RMK A01 T00261017  RH  073%=      5-min Rain = 0
KFR1 141940Z 21014KT 03/M02 A3014 RMK A01 T00271017  RH  073%=      5-min Rain = 0
KFR1 141941Z 20013KT 03/M02 A3014 RMK A01 T00281018  RH  072%=      5-min Rain = 0
KFR1 141942Z 21014G19KT 03/M02 A3014 RMK A01 T00291016  RH  072%=      5-min Rain = 0
KFR1 141943Z 21016KT 03/M02 A3014 RMK A01 T00301016  RH  072%=      5-min Rain = 0
KFR1 141944Z 20015KT 03/M02 A3014 RMK A01 T00301017  RH  071%=      5-min Rain = 0
KFR1 141945Z 20016G22KT 03/M02 A3014 RMK A01 T00301017  RH  071%=      5-min Rain = 0
KFR1 141946Z 20019KT 03/M02 A3013 RMK A01 T00291018  RH  071%=      5-min Rain = 0
KFR1 141947Z 21018KT 03/M02 A3013 RMK A01 T00271019  RH  072%=      5-min Rain = 0
KFR1 141948Z 20016KT 03/M02 A3013 RMK A01 T00261019  RH  072%=      5-min Rain = 0
KFR1 141949Z 20018KT 03/M02 A3013 RMK A01 T00261018  RH  072%=      5-min Rain = 0
KFR1 141950Z 20019KT 03/M02 A3013 RMK A01 T00261018  RH  072%=      5-min Rain = 0
KFR1 141951Z 20017KT 03/M02 A3013 RMK A01 T00271017  RH  072%=      5-min Rain = 0
KFR1 141952Z 20015G20KT 03/M02 A3013 RMK A01 T00301016  RH  072%=      5-min Rain = 0
KFR1 141953Z 20017G22KT 03/M02 A3013 RMK A01 T00311015  RH  071%=      5-min Rain = 0
KFR1 141954Z 20016KT 03/M02 A3012 RMK A01 T00331016  RH  071%=      5-min Rain = 0
KFR1 141955Z 21018KT 03/M02 A3012 RMK A01 T00331016  RH  070%=      5-min Rain = 0
KFR1 141956Z 21017KT 03/M02 A3012 RMK A01 T00331015  RH  071%=      5-min Rain = 0
KFR1 141957Z 20015KT 04/M01 A3012 RMK A01 T00361014  RH  070%=      5-min Rain = 0
KFR1 141958Z 21017G22KT 04/M01 A3012 RMK A01 T00391012  RH  069%=      5-min Rain = 0
KFR1 141959Z 20019KT 04/M02 A3012 RMK A01 T00381015  RH  068%=      5-min Rain = 0
KFR1 142000Z 20021G28KT 04/M01 A3012 RMK A01 T00381014  RH  069%=      5-min Rain = 0
KFR1 142001Z 22020KT 04/M01 A3012 RMK A01 T00381014  RH  069%=      5-min Rain = 0
KFR1 142002Z 21016KT 04/M01 A3012 RMK A01 T00371014  RH  069%=      5-min Rain = 0
KFR1 142003Z 21019G24KT 04/M01 A3012 RMK A01 T00401013  RH  069%=      5-min Rain = 0
KFR1 142004Z 22020KT 04/M01 A3011 RMK A01 T00401014  RH  068%=      5-min Rain = 0
KFR1 142005Z 21020KT 04/M02 A3011 RMK A01 T00381015  RH  068%=      5-min Rain = 0
KFR1 142006Z 21018G23KT 04/M01 A3011 RMK A01 T00401013  RH  069%=      5-min Rain = 0
KFR1 142007Z 20019KT 04/M01 A3011 RMK A01 T00431011  RH  068%=      5-min Rain = 0
KFR1 142008Z 20018KT 04/M01 A3011 RMK A01 T00431013  RH  067%=      5-min Rain = 0
KFR1 142009Z 20017G23KT 04/M02 A3011 RMK A01 T00411015  RH  067%=      5-min Rain = 0
KFR1 142010Z 20019G25KT 04/M01 A3011 RMK A01 T00431013  RH  067%=      5-min Rain = 0
KFR1 142011Z 20019KT 04/M01 A301 RMK A01 T00431013  RH  067%=      5-min Rain = 0
KFR1 142012Z 20017KT 04/M01 A301 RMK A01 T00441012  RH  067%=      5-min Rain = 0
KFR1 142013Z 20019KT 05/M01 A301 RMK A01 T00461011  RH  066%=      5-min Rain = 0
KFR1 142014Z 21020KT 05/M01 A301 RMK A01 T00461013  RH  066%=      5-min Rain = 0
KFR1 142015Z 22021KT 05/M01 A301 RMK A01 T00461011  RH  066%=      5-min Rain = 0
KFR1 142016Z 21018KT 05/M01 A301 RMK A01 T00451013  RH  066%=      5-min Rain = 0
KFR1 142017Z 20017G22KT 04/M01 A301 RMK A01 T00441013  RH  066%=      5-min Rain = 0
KFR1 142018Z 20017G23KT 04/M01 A301 RMK A01 T00441012  RH  067%=      5-min Rain = 0
KFR1 142019Z 20018G24KT 05/M01 A301 RMK A01 T00471010  RH  066%=      5-min Rain = 0
KFR1 142020Z 20020KT 05/M01 A301 RMK A01 T00491010  RH  066%=      5-min Rain = 0
KFR1 142021Z 20019KT 05/M01 A301 RMK A01 T00491011  RH  065%=      5-min Rain = 0
KFR1 142022Z 20018KT 05/M01 A301 RMK A01 T00491012  RH  065%=      5-min Rain = 0
KFR1 142023Z 20019KT 05/M01 A301 RMK A01 T00481011  RH  065%=      5-min Rain = 0
KFR1 142024Z 21016G21KT 05/M01 A301 RMK A01 T00481012  RH  065%=      5-min Rain = 0
KFR1 142025Z 21017KT 05/M01 A301 RMK A01 T00481010  RH  066%=      5-min Rain = 0
KFR1 142026Z 22017G22KT 05/M01 A301 RMK A01 T00471012  RH  066%=      5-min Rain = 0
KFR1 142027Z 21015KT 05/M01 A301 RMK A01 T00451012  RH  067%=      5-min Rain = 0
KFR1 142028Z 21015KT 04/M01 A3009 RMK A01 T00441012  RH  067%=      5-min Rain = 0
KFR1 142029Z 20014KT 04/M01 A301 RMK A01 T00431012  RH  068%=      5-min Rain = 0
KFR1 142030Z 21013KT 04/M01 A301 RMK A01 T00431012  RH  068%=      5-min Rain = 0
KFR1 142031Z 21013G18KT 04/M01 A3009 RMK A01 T00441011  RH  068%=      5-min Rain = 0
KFR1 142032Z 21019KT 05/M01 A3009 RMK A01 T00461009  RH  067%=      5-min Rain = 0
KFR1 142033Z 20017KT 05/M01 A3009 RMK A01 T00481009  RH  067%=      5-min Rain = 0
KFR1 142034Z 22016KT 05/M01 A3009 RMK A01 T00521005  RH  066%=      5-min Rain = 0
KFR1 142035Z 21018G23KT 06/M01 A3009 RMK A01 T00561005  RH  065%=      5-min Rain = 0
KFR1 142036Z 21019KT 06/M01 A3009 RMK A01 T00581006  RH  063%=      5-min Rain = 0
KFR1 142037Z 21017KT 06/M01 A3009 RMK A01 T00571009  RH  063%=      5-min Rain = 0
KFR1 142038Z 20014KT 06/M01 A3009 RMK A01 T00561007  RH  064%=      5-min Rain = 0
KFR1 142039Z 20014G19KT 06/M01 A3008 RMK A01 T00581007  RH  063%=      5-min Rain = 0
KFR1 142040Z 20017KT 06/M01 A3008 RMK A01 T00621005  RH  062%=      5-min Rain = 0
KFR1 142041Z 21018KT 06/M01 A3008 RMK A01 T00621008  RH  061%=      5-min Rain = 0
KFR1 142042Z 20019G24KT 06/M01 A3008 RMK A01 T00601008  RH  062%=      5-min Rain = 0
KFR1 142043Z 20016KT 06/M01 A3008 RMK A01 T00611008  RH  061%=      5-min Rain = 0
KFR1 142044Z 21015KT 06/M01 A3008 RMK A01 T00611007  RH  062%=      5-min Rain = 0
KFR1 142045Z 20015KT 06/M01 A3008 RMK A01 T00621007  RH  061%=      5-min Rain = 0
KFR1 142046Z 20016KT 06/M01 A3008 RMK A01 T00621007  RH  061%=      5-min Rain = 0
KFR1 142047Z 20016KT 06/M01 A3008 RMK A01 T00601008  RH  062%=      5-min Rain = 0
KFR1 142048Z 20017G22KT 06/M01 A3008 RMK A01 T00581009  RH  062%=      5-min Rain = 0
KFR1 142049Z 19016KT 06/M01 A3008 RMK A01 T00571008  RH  063%=      5-min Rain = 0
KFR1 142050Z 20018KT 06/M01 A3008 RMK A01 T00571008  RH  063%=      5-min Rain = 0
KFR1 142051Z 21016KT 06/M01 A3008 RMK A01 T00581007  RH  063%=      5-min Rain = 0
KFR1 142052Z 19014KT 06/M01 A3008 RMK A01 T00591007  RH  063%=      5-min Rain = 0
KFR1 142053Z 19018G23KT 06/M01 A3008 RMK A01 T00601006  RH  063%=      5-min Rain = 0
KFR1 142054Z 20017KT 06/M01 A3008 RMK A01 T00611007  RH  062%=      5-min Rain = 0
KFR1 142055Z 20017KT 06/M01 A3008 RMK A01 T00621006  RH  062%=      5-min Rain = 0
KFR1 142056Z 19020KT 06/M01 A3008 RMK A01 T00591009  RH  062%=      5-min Rain = 0
KFR1 142057Z 20016KT 06/M01 A3008 RMK A01 T00551010  RH  063%=      5-min Rain = 0
KFR1 142058Z 20017G22KT 06/M01 A3008 RMK A01 T00571007  RH  064%=      5-min Rain = 0
KFR1 142059Z 21017G23KT 06/M01 A3008 RMK A01 T00581006  RH  063%=      5-min Rain = 0
KFR1 142100Z 20018KT 06/M01 A3008 RMK A01 T00561009  RH  063%=      5-min Rain = 0
KFR1 142101Z 20019KT 05/M01 A3008 RMK A01 T00541009  RH  064%=      5-min Rain = 0
KFR1 142102Z 20019KT 05/M01 A3008 RMK A01 T00521010  RH  064%=      5-min Rain = 0
KFR1 142103Z 20019G24KT 05/M01 A3007 RMK A01 T00511009  RH  065%=      5-min Rain = 0
KFR1 142104Z 20018KT 05/M01 A3008 RMK A01 T00501009  RH  065%=      5-min Rain = 0
KFR1 142105Z 20020KT 05/M01 A3007 RMK A01 T00501009  RH  066%=      5-min Rain = 0
KFR1 142106Z 20016KT 05/M01 A3007 RMK A01 T00491009  RH  066%=      5-min Rain = 0
KFR1 142107Z 20017KT 05/M01 A3008 RMK A01 T00501008  RH  066%=      5-min Rain = 0
KFR1 142108Z 19020G25KT 05/M01 A3007 RMK A01 T00531007  RH  065%=      5-min Rain = 0
KFR1 142109Z 20021KT 05/M01 A3007 RMK A01 T00541007  RH  065%=      5-min Rain = 0
KFR1 142110Z 20022KT 05/M01 A3007 RMK A01 T00541007  RH  065%=      5-min Rain = 0
KFR1 142111Z 20019KT 06/M01 A3007 RMK A01 T00551007  RH  064%=      5-min Rain = 0
KFR1 142112Z 20018KT 06/M01 A3007 RMK A01 T00561007  RH  064%=      5-min Rain = 0
KFR1 142113Z 20018KT 06/M01 A3007 RMK A01 T00571006  RH  064%=      5-min Rain = 0
KFR1 142114Z 19020KT 06/M01 A3007 RMK A01 T00581006  RH  064%=      5-min Rain = 0
KFR1 142115Z 19020KT 06/M01 A3007 RMK A01 T00561007  RH  064%=      5-min Rain = 0
KFR1 142116Z 19019G25KT 06/M01 A3007 RMK A01 T00551007  RH  064%=      5-min Rain = 0
KFR1 142117Z 18020KT 05/M01 A3007 RMK A01 T00531008  RH  065%=      5-min Rain = 0
KFR1 142118Z 18020KT 05/M01 A3007 RMK A01 T00521008  RH  065%=      5-min Rain = 0
KFR1 142119Z 18016G23KT 05/M01 A3007 RMK A01 T00511009  RH  065%=      5-min Rain = 0
KFR1 142120Z 19014KT 05/M01 A3007 RMK A01 T00511007  RH  066%=      5-min Rain = 0
KFR1 142121Z 19016G22KT 06/M00 A3007 RMK A01 T00561003  RH  066%=      5-min Rain = 0
KFR1 142122Z 18019KT 06/M00 A3007 RMK A01 T00591004  RH  064%=      5-min Rain = 0
KFR1 142123Z 19018KT 06/M01 A3007 RMK A01 T00571007  RH  064%=      5-min Rain = 0
KFR1 142124Z 19018G23KT 06/M01 A3007 RMK A01 T00571006  RH  064%=      5-min Rain = 0
KFR1 142125Z 20015KT 06/M01 A3007 RMK A01 T00571006  RH  064%=      5-min Rain = 0
KFR1 142126Z 20018KT 06/M00 A3007 RMK A01 T00591004  RH  064%=      5-min Rain = 0
KFR1 142127Z 19018G24KT 06/M00 A3007 RMK A01 T00611004  RH  063%=      5-min Rain = 0
KFR1 142128Z 20020G25KT 06/M00 A3006 RMK A01 T00641003  RH  062%=      5-min Rain = 0
KFR1 142129Z 20018G23KT 06/M01 A3006 RMK A01 T00631005  RH  062%=      5-min Rain = 0
KFR1 142130Z 20022KT 06/M01 A3006 RMK A01 T00631005  RH  062%=      5-min Rain = 0
KFR1 142131Z 20017KT 06/M01 A3006 RMK A01 T00621007  RH  061%=      5-min Rain = 0
KFR1 142132Z 20015KT 06/M01 A3007 RMK A01 T00601006  RH  062%=      5-min Rain = 0
KFR1 142133Z 19016KT 06/M00 A3007 RMK A01 T00621004  RH  063%=      5-min Rain = 0
KFR1 142134Z 19014KT 06/M00 A3006 RMK A01 T00641003  RH  062%=      5-min Rain = 0
KFR1 142135Z 19017KT 07/M00 A3006 RMK A01 T00671002  RH  061%=      5-min Rain = 0
KFR1 142136Z 21015KT 07/M00 A3006 RMK A01 T00661004  RH  061%=      5-min Rain = 0
KFR1 142137Z 21018G23KT 07/M01 A3006 RMK A01 T00651005  RH  061%=      5-min Rain = 0
KFR1 142138Z 21020KT 06/M01 A3006 RMK A01 T00611008  RH  062%=      5-min Rain = 0
KFR1 142139Z 21018G23KT 06/M01 A3006 RMK A01 T00571008  RH  063%=      5-min Rain = 0
KFR1 142140Z 19018KT 06/M01 A3006 RMK A01 T00551007  RH  064%=      5-min Rain = 0
KFR1 142141Z 19019KT 05/M01 A3006 RMK A01 T00531007  RH  065%=      5-min Rain = 0
KFR1 142142Z 19017KT 05/M01 A3006 RMK A01 T00531006  RH  066%=      5-min Rain = 0
KFR1 142143Z 19016G22KT 05/M01 A3006 RMK A01 T00531006  RH  066%=      5-min Rain = 0
KFR1 142144Z 20017G22KT 05/M01 A3006 RMK A01 T00531006  RH  066%=      5-min Rain = 0
KFR1 142145Z 20021KT 05/M01 A3006 RMK A01 T00511006  RH  067%=      5-min Rain = 0
KFR1 142146Z 19017KT 05/M01 A3006 RMK A01 T00491007  RH  067%=      5-min Rain = 0
KFR1 142147Z 19017KT 05/M01 A3006 RMK A01 T00491006  RH  068%=      5-min Rain = 0
KFR1 142148Z 19021KT 05/M01 A3006 RMK A01 T00481006  RH  068%=      5-min Rain = 0
KFR1 142149Z 20020KT 05/M01 A3006 RMK A01 T00471007  RH  068%=      5-min Rain = 0
KFR1 142150Z 20019KT 05/M01 A3006 RMK A01 T00461006  RH  069%=      5-min Rain = 0
KFR1 142151Z 19018KT 05/M01 A3006 RMK A01 T00461006  RH  069%=      5-min Rain = 0
KFR1 142152Z 20018KT 05/M01 A3006 RMK A01 T00451007  RH  069%=      5-min Rain = 0
KFR1 142153Z 20018KT 04/M01 A3006 RMK A01 T00441006  RH  070%=      5-min Rain = 0
KFR1 142154Z 19014KT 04/M01 A3006 RMK A01 T00431007  RH  070%=      5-min Rain = 0
KFR1 142155Z 20012KT 04/M01 A3006 RMK A01 T00431006  RH  070%=      5-min Rain = 0
KFR1 142156Z 19014KT 05/M01 A3006 RMK A01 T00451005  RH  070%=      5-min Rain = 0
KFR1 142157Z 19015KT 05/M00 A3006 RMK A01 T00481004  RH  069%=      5-min Rain = 0
KFR1 142158Z 20014G19KT 05/M00 A3006 RMK A01 T00501004  RH  068%=      5-min Rain = 0
KFR1 142159Z 20016KT 05/M00 A3006 RMK A01 T00531003  RH  067%=      5-min Rain = 0
KFR1 142200Z 19018KT 06/M00 A3005 RMK A01 T00551003  RH  066%=      5-min Rain = 0
KFR1 142201Z 19020KT 06/M00 A3005 RMK A01 T00561003  RH  066%=      5-min Rain = 0
KFR1 142202Z 20017G22KT 06/M00 A3005 RMK A01 T00551004  RH  066%=      5-min Rain = 0
KFR1 142203Z 19017G24KT 06/M00 A3005 RMK A01 T00581003  RH  065%=      5-min Rain = 0
KFR1 142204Z 19021KT 06/M00 A3005 RMK A01 T00611002  RH  064%=      5-min Rain = 0
KFR1 142205Z 20019KT 06/M00 A3005 RMK A01 T00621003  RH  063%=      5-min Rain = 0
KFR1 142206Z 19019KT 06/M00 A3005 RMK A01 T00621004  RH  063%=      5-min Rain = 0
KFR1 142207Z 19018G24KT 06/M00 A3005 RMK A01 T00611003  RH  063%=      5-min Rain = 0
KFR1 142208Z 18022KT 06/M00 A3005 RMK A01 T00631002  RH  063%=      5-min Rain = 0
KFR1 142209Z 19021KT 06/M00 A3004 RMK A01 T00621004  RH  063%=      5-min Rain = 0
KFR1 142210Z 19018G24KT 06/M00 A3004 RMK A01 T00621004  RH  063%=      5-min Rain = 0
KFR1 142211Z 20019G25KT 06/M00 A3004 RMK A01 T00641002  RH  063%=      5-min Rain = 0
KFR1 142212Z 20021KT 07/M00 A3004 RMK A01 T00661003  RH  062%=      5-min Rain = 0
KFR1 142213Z 19021G26KT 06/M00 A3004 RMK A01 T00641004  RH  062%=      5-min Rain = 0
KFR1 142214Z 19019G25KT 06/M00 A3004 RMK A01 T00631004  RH  062%=      5-min Rain = 0
KFR1 142215Z 20021G26KT 06/M00 A3004 RMK A01 T00631004  RH  062%=      5-min Rain = 0
KFR1 142216Z 20020G26KT 06/M01 A3004 RMK A01 T00611005  RH  063%=      5-min Rain = 0
KFR1 142217Z 20019KT 06/M00 A3004 RMK A01 T00601004  RH  063%=      5-min Rain = 0
KFR1 142218Z 20019KT 06/M00 A3004 RMK A01 T00601004  RH  063%=      5-min Rain = 0
KFR1 142219Z 20016G21KT 06/M00 A3004 RMK A01 T00611003  RH  063%=      5-min Rain = 0
KFR1 142220Z 20022KT 06/M00 A3004 RMK A01 T00611004  RH  063%=      5-min Rain = 0
KFR1 142221Z 19021G26KT 06/M01 A3004 RMK A01 T00591005  RH  064%=      5-min Rain = 0
KFR1 142222Z 20019G24KT 06/M00 A3004 RMK A01 T00591004  RH  064%=      5-min Rain = 0
KFR1 142223Z 20018G23KT 06/M00 A3004 RMK A01 T00601004  RH  063%=      5-min Rain = 0
KFR1 142224Z 20020KT 06/M01 A3004 RMK A01 T00591005  RH  064%=      5-min Rain = 0
KFR1 142225Z 20023KT 06/M01 A3004 RMK A01 T00571007  RH  064%=      5-min Rain = 0
KFR1 142226Z 19020KT 05/M01 A3004 RMK A01 T00541007  RH  065%=      5-min Rain = 0
KFR1 142227Z 19021KT 05/M01 A3004 RMK A01 T00531006  RH  065%=      5-min Rain = 0
KFR1 142228Z 20017G23KT 05/M01 A3005 RMK A01 T00521007  RH  066%=      5-min Rain = 0
KFR1 142229Z 19019G24KT 05/M01 A3005 RMK A01 T00531005  RH  066%=      5-min Rain = 0
KFR1 142230Z 19018G24KT 05/M01 A3005 RMK A01 T00531005  RH  066%=      5-min Rain = 0
KFR1 142231Z 19020KT 05/M01 A3005 RMK A01 T00531006  RH  066%=      5-min Rain = 0
KFR1 142232Z 19017KT 05/M01 A3005 RMK A01 T00501007  RH  067%=      5-min Rain = 0
KFR1 142233Z 18016KT 05/M01 A3005 RMK A01 T00491006  RH  067%=      5-min Rain = 0
KFR1 142234Z 19019KT 05/M01 A3005 RMK A01 T00511005  RH  067%=      5-min Rain = 0
KFR1 142235Z 19019G24KT 05/M01 A3004 RMK A01 T00511005  RH  067%=      5-min Rain = 0
KFR1 142236Z 19021KT 05/M01 A3004 RMK A01 T00511005  RH  067%=      5-min Rain = 0
KFR1 142237Z 19019G25KT 05/M01 A3004 RMK A01 T00491006  RH  067%=      5-min Rain = 0
KFR1 142238Z 19021KT 05/M01 A3004 RMK A01 T00481006  RH  068%=      5-min Rain = 0
KFR1 142239Z 20020G26KT 05/M01 A3004 RMK A01 T00481006  RH  068%=      5-min Rain = 0
KFR1 142240Z 20017G22KT 05/M01 A3005 RMK A01 T00471006  RH  069%=      5-min Rain = 0
KFR1 142241Z 20018KT 05/M01 A3004 RMK A01 T00471006  RH  069%=      5-min Rain = 0
KFR1 142242Z 19019KT 05/M01 A3004 RMK A01 T00461006  RH  069%=      5-min Rain = 0
KFR1 142243Z 20019G25KT 05/M01 A3004 RMK A01 T00461006  RH  069%=      5-min Rain = 0
KFR1 142244Z 19019G24KT 05/M01 A3005 RMK A01 T00451006  RH  069%=      5-min Rain = 0
KFR1 142245Z 19019G24KT 05/M01 A3005 RMK A01 T00451006  RH  070%=      5-min Rain = 0
KFR1 142246Z 19022KT 05/M01 A3005 RMK A01 T00451006  RH  070%=      5-min Rain = 0
KFR1 142247Z 19022G27KT 04/M01 A3004 RMK A01 T00441006  RH  070%=      5-min Rain = 0
KFR1 142248Z 20016KT 04/M01 A3004 RMK A01 T00431006  RH  070%=      5-min Rain = 0
KFR1 142249Z 20017G22KT 05/M01 A3005 RMK A01 T00451005  RH  070%=      5-min Rain = 0
KFR1 142250Z 19016G22KT 05/M01 A3004 RMK A01 T00461005  RH  070%=      5-min Rain = 0
KFR1 142251Z 19021G26KT 05/M01 A3004 RMK A01 T00461005  RH  069%=      5-min Rain = 0
KFR1 142252Z 19021G26KT 05/M01 A3004 RMK A01 T00451006  RH  069%=      5-min Rain = 0
KFR1 142253Z 19017G22KT 04/M01 A3004 RMK A01 T00441006  RH  070%=      5-min Rain = 0
KFR1 142254Z 19022KT 05/M01 A3004 RMK A01 T00451005  RH  070%=      5-min Rain = 0
KFR1 142255Z 18019G24KT 05/M01 A3004 RMK A01 T00451005  RH  070%=      5-min Rain = 0
KFR1 142256Z 19022G27KT 05/M01 A3004 RMK A01 T00451005  RH  070%=      5-min Rain = 0
KFR1 142257Z 19019G25KT 04/M01 A3004 RMK A01 T00441005  RH  070%=      5-min Rain = 0
KFR1 142258Z 19018G25KT 05/M00 A3004 RMK A01 T00451004  RH  070%=      5-min Rain = 0
KFR1 142259Z 19019KT 05/M00 A3004 RMK A01 T00461004  RH  070%=      5-min Rain = 0
KFR1 142300Z 19022G28KT 05/M00 A3004 RMK A01 T00461004  RH  070%=      5-min Rain = 0
KFR1 142301Z 20021KT 05/M01 A3004 RMK A01 T00451005  RH  070%=      5-min Rain = 0
KFR1 142302Z 20020G25KT 04/M01 A3004 RMK A01 T00441005  RH  070%=      5-min Rain = 0
KFR1 142303Z 20017G22KT 04/M01 A3004 RMK A01 T00431005  RH  071%=      5-min Rain = 0
KFR1 142304Z 20017KT 04/M00 A3004 RMK A01 T00441004  RH  071%=      5-min Rain = 0
KFR1 142305Z 19017KT 04/M00 A3004 RMK A01 T00441004  RH  071%=      5-min Rain = 0
KFR1 142306Z 20018KT 04/M00 A3004 RMK A01 T00441004  RH  071%=      5-min Rain = 0
KFR1 142307Z 20017G23KT 05/M00 A3004 RMK A01 T00451004  RH  071%=      5-min Rain = 0
KFR1 142308Z 20014KT 05/M00 A3004 RMK A01 T00451004  RH  070%=      5-min Rain = 0
KFR1 142309Z 19023KT 05/M00 A3003 RMK A01 T00451004  RH  070%=      5-min Rain = 0
KFR1 142310Z 19021G26KT 04/M01 A3003 RMK A01 T00441005  RH  070%=      5-min Rain = 0
KFR1 142311Z 20019G25KT 04/M00 A3004 RMK A01 T00441004  RH  071%=      5-min Rain = 0
KFR1 142312Z 20020G26KT 04/M00 A3004 RMK A01 T00441004  RH  071%=      5-min Rain = 0
KFR1 142313Z 20019G24KT 04/M00 A3004 RMK A01 T00441004  RH  071%=      5-min Rain = 0
KFR1 142314Z 20019KT 04/M00 A3004 RMK A01 T00441004  RH  071%=      5-min Rain = 0
KFR1 142315Z 21015KT 04/M00 A3004 RMK A01 T00431004  RH  071%=      5-min Rain = 0
KFR1 142316Z 20019G25KT 04/M00 A3004 RMK A01 T00431004  RH  071%=      5-min Rain = 0
KFR1 142317Z 20017G23KT 04/M00 A3004 RMK A01 T00441004  RH  071%=      5-min Rain = 0
KFR1 142318Z 20020G25KT 04/M00 A3004 RMK A01 T00441004  RH  071%=      5-min Rain = 0
KFR1 142319Z 20019G25KT 04/M00 A3004 RMK A01 T00441004  RH  071%=      5-min Rain = 0
KFR1 142320Z 20020KT 04/M00 A3003 RMK A01 T00441004  RH  071%=      5-min Rain = 0
KFR1 142321Z 20015G20KT 04/M00 A3004 RMK A01 T00431004  RH  071%=      5-min Rain = 0
KFR1 142322Z 20012KT 04/M00 A3004 RMK A01 T00431004  RH  071%=      5-min Rain = 0
KFR1 142323Z 19014G19KT 04/M00 A3004 RMK A01 T00441003  RH  071%=      5-min Rain = 0
KFR1 142324Z 20021G27KT 04/M00 A3003 RMK A01 T00441004  RH  071%=      5-min Rain = 0
KFR1 142325Z 20016G24KT 04/M00 A3003 RMK A01 T00431004  RH  072%=      5-min Rain = 0
KFR1 142326Z 21018KT 04/M00 A3003 RMK A01 T00421004  RH  072%=      5-min Rain = 0
KFR1 142327Z 20017G22KT 04/M00 A3003 RMK A01 T00421004  RH  072%=      5-min Rain = 0
KFR1 142328Z 20017G24KT 04/M00 A3003 RMK A01 T00421004  RH  072%=      5-min Rain = 0
KFR1 142329Z 20019G25KT 04/M00 A3003 RMK A01 T00421004  RH  072%=      5-min Rain = 0
KFR1 142330Z 19017KT 04/M00 A3003 RMK A01 T00411004  RH  073%=      5-min Rain = 0
KFR1 142331Z 20016G26KT 04/M00 A3003 RMK A01 T00411004  RH  073%=      5-min Rain = 0
KFR1 142332Z 20021G27KT 04/M00 A3003 RMK A01 T00411004  RH  073%=      5-min Rain = 0
KFR1 142333Z 20020G25KT 04/M00 A3002 RMK A01 T00411004  RH  073%=      5-min Rain = 0
KFR1 142334Z 20017KT 04/M00 A3002 RMK A01 T00401004  RH  073%=      5-min Rain = 0
KFR1 142335Z 20020KT 04/M00 A3002 RMK A01 T00401004  RH  073%=      5-min Rain = 0
KFR1 142336Z 20015KT 04/M00 A3003 RMK A01 T00401003  RH  073%=      5-min Rain = 0
KFR1 142337Z 20016G22KT 04/M00 A3002 RMK A01 T00401003  RH  073%=      5-min Rain = 0
KFR1 142338Z 20021G26KT 04/M00 A3002 RMK A01 T00401004  RH  073%=      5-min Rain = 0
KFR1 142339Z 20022G27KT 04/M00 A3002 RMK A01 T00391004  RH  073%=      5-min Rain = 0
KFR1 142340Z 20023KT 04/M01 A3002 RMK A01 T00381005  RH  074%=      5-min Rain = 0
KFR1 142341Z 20020G27KT 04/M00 A3002 RMK A01 T00381004  RH  074%=      5-min Rain = 0
KFR1 142342Z 19018G24KT 04/M00 A3002 RMK A01 T00371004  RH  074%=      5-min Rain = 0
KFR1 142343Z 19021KT 04/M01 A3002 RMK A01 T00361005  RH  074%=      5-min Rain = 0
KFR1 142344Z 20021KT 04/M01 A3002 RMK A01 T00361005  RH  075%=      5-min Rain = 0
KFR1 142345Z 19023KT 04/M01 A3002 RMK A01 T00351006  RH  075%=      5-min Rain = 0
KFR1 142346Z 19015G21KT 04/M01 A3002 RMK A01 T00351005  RH  075%=      5-min Rain = 0
KFR1 142347Z 19017G26KT 03/M01 A3002 RMK A01 T00341005  RH  075%=      5-min Rain = 0
KFR1 142348Z 20022G30KT 03/M01 A3001 RMK A01 T00341005  RH  075%=      5-min Rain = 0
KFR1 142349Z 19021G26KT 03/M01 A3001 RMK A01 T00341006  RH  075%=      5-min Rain = 0
KFR1 142350Z 20018G24KT 03/M01 A3001 RMK A01 T00341005  RH  075%=      5-min Rain = 0
KFR1 142351Z 20024G31KT 03/M01 A3001 RMK A01 T00341005  RH  075%=      5-min Rain = 0
KFR1 142352Z 20022KT 03/M01 A3001 RMK A01 T00341005  RH  076%=      5-min Rain = 0
KFR1 142353Z 20021KT 03/M01 A3001 RMK A01 T00331005  RH  076%=      5-min Rain = 0
KFR1 142354Z 20024KT 03/M01 A3001 RMK A01 T00331005  RH  076%=      5-min Rain = 0
KFR1 142355Z 20020G25KT 03/M01 A3001 RMK A01 T00331005  RH  076%=      5-min Rain = 0
KFR1 142356Z 19022KT 03/M01 A3001 RMK A01 T00331005  RH  076%=      5-min Rain = 0
KFR1 142357Z 19022KT 03/M01 A3001 RMK A01 T00331005  RH  076%=      5-min Rain = 0
KFR1 142358Z 19020G25KT 03/M01 A3001 RMK A01 T00321005  RH  077%=      5-min Rain = 0
KFR1 142359Z 19022KT 03/M01 A3001 RMK A01 T00321005  RH  077%=      5-min Rain = 0
KFR1 150000Z 20024KT 03/M01 A3001 RMK A01 T00311005  RH  077%=      5-min Rain = 0
KFR1 150001Z 19021G26KT 03/M01 A3001 RMK A01 T00311005  RH  077%=      5-min Rain = 0
KFR1 150002Z 19021G28KT 03/M01 A3001 RMK A01 T00301005  RH  078%=      5-min Rain = 0
KFR1 150003Z 20024G32KT 03/M01 A30 RMK A01 T00291005  RH  078%=      5-min Rain = 0
KFR1 150004Z 19026KT 03/M01 A30 RMK A01 T00291005  RH  078%=      5-min Rain = 0
KFR1 150005Z 20024G33KT 03/M01 A30 RMK A01 T00291005  RH  078%=      5-min Rain = 0
KFR1 150006Z 19022G29KT 03/M01 A30 RMK A01 T00281005  RH  079%=      5-min Rain = 0
KFR1 150007Z 19025G31KT 03/M01 A30 RMK A01 T00281006  RH  079%=      5-min Rain = 0
KFR1 150008Z 19022G31KT 03/M01 A30 RMK A01 T00271006  RH  079%=      5-min Rain = 0
KFR1 150009Z 20025G31KT 03/M01 A30 RMK A01 T00261006  RH  080%=      5-min Rain = 0
KFR1 150010Z 20024G31KT 03/M01 A30 RMK A01 T00261006  RH  080%=      5-min Rain = 0
KFR1 150011Z 19024G32KT 03/M01 A30 RMK A01 T00251005  RH  080%=      5-min Rain = 0
KFR1 150012Z 19025G32KT 03/M01 A30 RMK A01 T00251005  RH  080%=      5-min Rain = 0
KFR1 150013Z 19023G28KT 03/M01 A30 RMK A01 T00251005  RH  080%=      5-min Rain = 0
KFR1 150014Z 19022G27KT 03/M01 A30 RMK A01 T00251005  RH  080%=      5-min Rain = 0
KFR1 150015Z 19022G27KT 03/M01 A30 RMK A01 T00251005  RH  081%=      5-min Rain = 0
KFR1 150016Z 19020G27KT 03/M01 A30 RMK A01 T00251005  RH  081%=      5-min Rain = 0
KFR1 150017Z 19024G30KT 03/M01 A30 RMK A01 T00251005  RH  081%=      5-min Rain = 0
KFR1 150018Z 20021G26KT 03/M01 A30 RMK A01 T00251005  RH  081%=      5-min Rain = 0
KFR1 150019Z 19025KT 03/M01 A30 RMK A01 T00251005  RH  081%=      5-min Rain = 0
KFR1 150020Z 20023G30KT 03/M01 A30 RMK A01 T00251005  RH  081%=      5-min Rain = 0
KFR1 150021Z 19017KT 03/M01 A30 RMK A01 T00251005  RH  081%=      5-min Rain = 0
KFR1 150022Z 19021G27KT 02/M01 A30 RMK A01 T00241005  RH  081%=      5-min Rain = 0
KFR1 150023Z 19021G27KT 02/M01 A30 RMK A01 T00231005  RH  081%=      5-min Rain = 0
KFR1 150024Z 19022KT 02/M01 A30 RMK A01 T00231005  RH  082%=      5-min Rain = 0
KFR1 150025Z 19017G22KT 02/M01 A30 RMK A01 T00231005  RH  082%=      5-min Rain = 0
KFR1 150026Z 19021G29KT 02/M01 A30 RMK A01 T00221006  RH  082%=      5-min Rain = 0
KFR1 150027Z 19026KT 02/M01 A30 RMK A01 T00221006  RH  082%=      5-min Rain = 0
KFR1 150028Z 19025G32KT 02/M01 A30 RMK A01 T00221005  RH  082%=      5-min Rain = 0
KFR1 150029Z 19024G29KT 02/M01 A30 RMK A01 T00221005  RH  083%=      5-min Rain = 0
KFR1 150030Z 19022G27KT 02/M01 A30 RMK A01 T00211005  RH  083%=      5-min Rain = 0
KFR1 150031Z 19023G31KT 02/M01 A30 RMK A01 T00211005  RH  083%=      5-min Rain = 0
KFR1 150032Z 19024KT 02/M01 A30 RMK A01 T00211005  RH  083%=      5-min Rain = 0
KFR1 150033Z 19028KT 02/M01 A2999 RMK A01 T00211005  RH  083%=      5-min Rain = 0
KFR1 150034Z 19025G30KT 02/M01 A2999 RMK A01 T00201005  RH  083%=      5-min Rain = 0
KFR1 150035Z 19023KT 02/M01 A30 RMK A01 T00201005  RH  083%=      5-min Rain = 0
KFR1 150036Z 19021G27KT 02/M01 A30 RMK A01 T00201006  RH  083%=      5-min Rain = 0
KFR1 150037Z 19024G29KT 02/M01 A2999 RMK A01 T00191006  RH  083%=      5-min Rain = 0
KFR1 150038Z 19026G32KT 02/M01 A2999 RMK A01 T00201005  RH  084%=      5-min Rain = 0
KFR1 150039Z 19024G32KT 02/M01 A2999 RMK A01 T00191005  RH  084%=      5-min Rain = 0
KFR1 150040Z 19028G33KT 02/M01 A2999 RMK A01 T00191005  RH  084%=      5-min Rain = 0
KFR1 150041Z 20027G32KT 02/M01 A2999 RMK A01 T00191005  RH  084%=      5-min Rain = 0
KFR1 150042Z 20027G34KT 02/M01 A2999 RMK A01 T00191005  RH  084%=      5-min Rain = 0
KFR1 150043Z 20028KT 02/M01 A2999 RMK A01 T00191006  RH  084%=      5-min Rain = 0
KFR1 150044Z 19027G33KT 02/M01 A2999 RMK A01 T00191006  RH  084%=      5-min Rain = 0
KFR1 150045Z 20025KT 02/M01 A2999 RMK A01 T00191006  RH  084%=      5-min Rain = 0
KFR1 150046Z 19025G30KT 02/M01 A2999 RMK A01 T00191006  RH  084%=      5-min Rain = 0
KFR1 150047Z 19023G29KT 02/M01 A30 RMK A01 T00191006  RH  084%=      5-min Rain = 0
KFR1 150048Z 19026G34KT 02/M01 A30 RMK A01 T00181006  RH  084%=      5-min Rain = 0
KFR1 150049Z 19022G27KT 02/M01 A30 RMK A01 T00181006  RH  084%=      5-min Rain = 0
KFR1 150050Z 20022KT 02/M01 A30 RMK A01 T00181006  RH  084%=      5-min Rain = 0
KFR1 150051Z 20024G31KT 02/M01 A30 RMK A01 T00181006  RH  084%=      5-min Rain = 0
KFR1 150052Z 19027G33KT 02/M01 A30 RMK A01 T00181005  RH  085%=      5-min Rain = 0
KFR1 150053Z 20024KT 02/M01 A30 RMK A01 T00181005  RH  085%=      5-min Rain = 0
KFR1 150054Z 19022G31KT 02/M01 A30 RMK A01 T00181005  RH  085%=      5-min Rain = 0
KFR1 150055Z 19022KT 02/M01 A30 RMK A01 T00181005  RH  085%=      5-min Rain = 0
KFR1 150056Z 19024KT 02/M01 A30 RMK A01 T00171006  RH  085%=      5-min Rain = 0
KFR1 150057Z 19022G28KT 02/M01 A30 RMK A01 T00181005  RH  085%=      5-min Rain = 0
KFR1 150058Z 19023KT 02/M01 A30 RMK A01 T00171005  RH  085%=      5-min Rain = 0
KFR1 150059Z 19021KT 02/M01 A30 RMK A01 T00171005  RH  085%=      5-min Rain = 0
KFR1 150100Z 20023G29KT 02/M01 A30 RMK A01 T00171005  RH  085%=      5-min Rain = 0
KFR1 150101Z 19022G27KT 02/M01 A30 RMK A01 T00161006  RH  085%=      5-min Rain = 0
KFR1 150102Z 19023KT 02/M01 A30 RMK A01 T00171006  RH  085%=      5-min Rain = 0
KFR1 150103Z 20022G27KT 02/M01 A30 RMK A01 T00171006  RH  085%=      5-min Rain = 0
KFR1 150104Z 20021G29KT 02/M01 A30 RMK A01 T00171006  RH  085%=      5-min Rain = 0
KFR1 150105Z 20022G27KT 02/M01 A30 RMK A01 T00161006  RH  085%=      5-min Rain = 0
KFR1 150106Z 19022G30KT 02/M01 A3001 RMK A01 T00171005  RH  085%=      5-min Rain = 0
KFR1 150107Z 20020G26KT 02/M01 A3001 RMK A01 T00161006  RH  085%=      5-min Rain = 0
KFR1 150108Z 20022G28KT 02/M01 A30 RMK A01 T00161005  RH  085%=      5-min Rain = 0
KFR1 150109Z 20024G31KT 02/M01 A30 RMK A01 T00171005  RH  085%=      5-min Rain = 0
KFR1 150110Z 19024G31KT 02/M01 A30 RMK A01 T00171005  RH  085%=      5-min Rain = 0
KFR1 150111Z 19020G25KT 02/M01 A3001 RMK A01 T00171005  RH  085%=      5-min Rain = 0
KFR1 150112Z 20020G26KT 02/M01 A3001 RMK A01 T00171005  RH  085%=      5-min Rain = 0
KFR1 150113Z 19021G26KT 02/M01 A3001 RMK A01 T00171005  RH  086%=      5-min Rain = 0
KFR1 150114Z 20017G22KT 02/M01 A3001 RMK A01 T00171005  RH  086%=      5-min Rain = 0
KFR1 150115Z 20021G27KT 02/M01 A3001 RMK A01 T00161005  RH  086%=      5-min Rain = 0
KFR1 150116Z 20023G29KT 02/M01 A3001 RMK A01 T00171005  RH  086%=      5-min Rain = 0
KFR1 150117Z 20024KT 02/M01 A3001 RMK A01 T00171005  RH  086%=      5-min Rain = 0
KFR1 150118Z 20022G27KT 02/M01 A3001 RMK A01 T00171005  RH  086%=      5-min Rain = 0
KFR1 150119Z 20022KT 02/M01 A3001 RMK A01 T00171005  RH  086%=      5-min Rain = 0
KFR1 150120Z 20022G29KT 02/M01 A3001 RMK A01 T00171005  RH  086%=      5-min Rain = 0
KFR1 150121Z 20020G26KT 02/M01 A3001 RMK A01 T00171005  RH  086%=      5-min Rain = 0
KFR1 150122Z 20022KT 02/M01 A3001 RMK A01 T00171005  RH  086%=      5-min Rain = 0
KFR1 150123Z 20020G27KT 02/M01 A3001 RMK A01 T00171005  RH  086%=      5-min Rain = 0
KFR1 150124Z 20019G25KT 02/M01 A3001 RMK A01 T00171005  RH  086%=      5-min Rain = 0
KFR1 150125Z 20021G27KT 02/M01 A3001 RMK A01 T00171005  RH  086%=      5-min Rain = 0
KFR1 150126Z 19021KT 02/M01 A3001 RMK A01 T00171005  RH  086%=      5-min Rain = 0
KFR1 150127Z 20022G27KT 02/M01 A3001 RMK A01 T00161005  RH  086%=      5-min Rain = 0
KFR1 150128Z 20019KT 02/M01 A3001 RMK A01 T00161005  RH  086%=      5-min Rain = 0
KFR1 150129Z 19020G25KT 02/M01 A3001 RMK A01 T00161005  RH  086%=      5-min Rain = 0
KFR1 150130Z 20021KT 02/M01 A3001 RMK A01 T00161005  RH  086%=      5-min Rain = 0
KFR1 150131Z 20019KT 02/M01 A3002 RMK A01 T00161005  RH  086%=      5-min Rain = 0
KFR1 150132Z 19021G29KT 02/M01 A3002 RMK A01 T00161005  RH  086%=      5-min Rain = 0
KFR1 150133Z 20020G25KT 02/M01 A3001 RMK A01 T00161005  RH  086%=      5-min Rain = 0
KFR1 150134Z 19025G30KT 02/M00 A3001 RMK A01 T00161004  RH  086%=      5-min Rain = 0
KFR1 150135Z 20020G25KT 02/M00 A3002 RMK A01 T00171004  RH  086%=      5-min Rain = 0
KFR1 150136Z 20022G27KT 02/M01 A3001 RMK A01 T00171005  RH  086%=      5-min Rain = 0
KFR1 150137Z 20018KT 02/M00 A3002 RMK A01 T00171004  RH  086%=      5-min Rain = 0
KFR1 150138Z 19017KT 02/M01 A3002 RMK A01 T00161005  RH  086%=      5-min Rain = 0
KFR1 150139Z 19017KT 02/M01 A3002 RMK A01 T00161005  RH  086%=      5-min Rain = 0
KFR1 150140Z 19017KT 02/M01 A3002 RMK A01 T00151005  RH  086%=      5-min Rain = 0
KFR1 150141Z 19018KT 02/M01 A3002 RMK A01 T00151005  RH  086%=      5-min Rain = 0
KFR1 150142Z 19017G22KT 02/M01 A3002 RMK A01 T00151005  RH  087%=      5-min Rain = 0
KFR1 150143Z 19019KT 01/M01 A3002 RMK A01 T00141005  RH  087%=      5-min Rain = 0
KFR1 150144Z 19018KT 01/M01 A3002 RMK A01 T00141005  RH  087%=      5-min Rain = 0
KFR1 150145Z 19015G20KT 01/M01 A3002 RMK A01 T00141005  RH  087%=      5-min Rain = 0
KFR1 150146Z 20015KT 01/M01 A3002 RMK A01 T00141006  RH  087%=      5-min Rain = 0
KFR1 150147Z 19014G21KT 01/M01 A3002 RMK A01 T00141005  RH  087%=      5-min Rain = 0
KFR1 150148Z 19016KT 01/M01 A3002 RMK A01 T00141005  RH  087%=      5-min Rain = 0
KFR1 150149Z 20018KT 01/M01 A3002 RMK A01 T00141005  RH  087%=      5-min Rain = 0
KFR1 150150Z 20015KT 01/M01 A3003 RMK A01 T00141005  RH  087%=      5-min Rain = 0
KFR1 150151Z 20017G22KT 01/M01 A3002 RMK A01 T00141005  RH  087%=      5-min Rain = 0
KFR1 150152Z 20018G23KT 01/M01 A3002 RMK A01 T00131005  RH  087%=      5-min Rain = 0
KFR1 150153Z 20017KT 01/M01 A3002 RMK A01 T00131005  RH  087%=      5-min Rain = 0
KFR1 150154Z 19019G25KT 01/M01 A3002 RMK A01 T00131005  RH  087%=      5-min Rain = 0
KFR1 150155Z 20018KT 01/M01 A3002 RMK A01 T00141005  RH  087%=      5-min Rain = 0
KFR1 150156Z 20019G26KT 01/M01 A3002 RMK A01 T00141005  RH  087%=      5-min Rain = 0
KFR1 150157Z 20020G25KT 02/M00 A3002 RMK A01 T00151004  RH  087%=      5-min Rain = 0
KFR1 150158Z 20021KT 02/M00 A3002 RMK A01 T00151004  RH  087%=      5-min Rain = 0
KFR1 150159Z 20020KT 02/M00 A3002 RMK A01 T00151004  RH  087%=      5-min Rain = 0
KFR1 150200Z 20020KT 02/M00 A3002 RMK A01 T00151004  RH  087%=      5-min Rain = 0
KFR1 150201Z 20020G28KT 02/M00 A3002 RMK A01 T00151004  RH  087%=      5-min Rain = 0
KFR1 150202Z 20021G26KT 02/M00 A3002 RMK A01 T00151004  RH  087%=      5-min Rain = 0
KFR1 150203Z 20021G27KT 02/M00 A3001 RMK A01 T00151004  RH  087%=      5-min Rain = 0
KFR1 150204Z 20021G26KT 02/M00 A3002 RMK A01 T00161004  RH  087%=      5-min Rain = 0
KFR1 150205Z 20022KT 02/M00 A3002 RMK A01 T00161003  RH  087%=      5-min Rain = 0
KFR1 150206Z 20023G28KT 02/M00 A3002 RMK A01 T00161003  RH  087%=      5-min Rain = 0
KFR1 150207Z 20019G28KT 02/M00 A3002 RMK A01 T00151004  RH  087%=      5-min Rain = 0
KFR1 150208Z 20019G24KT 02/M00 A3002 RMK A01 T00151004  RH  087%=      5-min Rain = 0
KFR1 150209Z 20019G24KT 02/M00 A3002 RMK A01 T00151004  RH  087%=      5-min Rain = 0
KFR1 150210Z 21020KT 02/M00 A3002 RMK A01 T00151004  RH  087%=      5-min Rain = 0
KFR1 150211Z 20015KT 02/M00 A3002 RMK A01 T00151004  RH  087%=      5-min Rain = 0
KFR1 150212Z 21018G27KT 02/M00 A3002 RMK A01 T00151004  RH  087%=      5-min Rain = 0
KFR1 150213Z 21022KT 02/M00 A3002 RMK A01 T00151003  RH  088%=      5-min Rain = 0
KFR1 150214Z 21020G26KT 02/M00 A3002 RMK A01 T00151003  RH  087%=      5-min Rain = 0
KFR1 150215Z 21021KT 02/M00 A3002 RMK A01 T00161004  RH  087%=      5-min Rain = 0
KFR1 150216Z 20021G26KT 02/M00 A3002 RMK A01 T00161004  RH  087%=      5-min Rain = 0
KFR1 150217Z 20021G27KT 02/M00 A3002 RMK A01 T00161004  RH  087%=      5-min Rain = 0
KFR1 150218Z 21020G26KT 02/M00 A3002 RMK A01 T00161004  RH  087%=      5-min Rain = 0
KFR1 150219Z 20015G22KT 02/M00 A3002 RMK A01 T00161004  RH  087%=      5-min Rain = 0
KFR1 150220Z 21018KT 02/M00 A3002 RMK A01 T00151004  RH  087%=      5-min Rain = 0
KFR1 150221Z 20017G23KT 02/M00 A3002 RMK A01 T00151004  RH  087%=      5-min Rain = 0
KFR1 150222Z 21021KT 02/M00 A3002 RMK A01 T00151004  RH  087%=      5-min Rain = 0
KFR1 150223Z 21017G23KT 02/M00 A3002 RMK A01 T00151003  RH  087%=      5-min Rain = 0
KFR1 150224Z 21018KT 02/M00 A3002 RMK A01 T00151004  RH  087%=      5-min Rain = 0
KFR1 150225Z 21025G31KT 02/M00 A3002 RMK A01 T00151003  RH  087%=      5-min Rain = 0
KFR1 150226Z 21020KT 02/M00 A3002 RMK A01 T00151004  RH  087%=      5-min Rain = 0
KFR1 150227Z 21021KT 02/M00 A3002 RMK A01 T00151004  RH  087%=      5-min Rain = 0
KFR1 150228Z 21022G29KT 02/M00 A3002 RMK A01 T00151004  RH  087%=      5-min Rain = 0
KFR1 150229Z 21023G28KT 02/M00 A3002 RMK A01 T00151004  RH  087%=      5-min Rain = 0
KFR1 150230Z 21022G28KT 02/M00 A3002 RMK A01 T00161003  RH  087%=      5-min Rain = 0
KFR1 150231Z 21023KT 02/M00 A3002 RMK A01 T00161003  RH  087%=      5-min Rain = 0
KFR1 150232Z 21021G26KT 02/M00 A3002 RMK A01 T00161003  RH  087%=      5-min Rain = 0
KFR1 150233Z 21021G27KT 02/M00 A3002 RMK A01 T00161003  RH  087%=      5-min Rain = 0
KFR1 150234Z 21021G26KT 02/M00 A3002 RMK A01 T00161003  RH  087%=      5-min Rain = 0
KFR1 150235Z 21022KT 02/M00 A3002 RMK A01 T00161003  RH  087%=      5-min Rain = 0
KFR1 150236Z 21020KT 02/M00 A3002 RMK A01 T00161003  RH  087%=      5-min Rain = 0
KFR1 150237Z 21019G25KT 02/M00 A3002 RMK A01 T00161003  RH  087%=      5-min Rain = 0
KFR1 150238Z 21018G23KT 02/M00 A3002 RMK A01 T00161003  RH  087%=      5-min Rain = 0
KFR1 150239Z 21019KT 02/M00 A3002 RMK A01 T00161003  RH  087%=      5-min Rain = 0
KFR1 150240Z 21019G27KT 02/M00 A3002 RMK A01 T00151004  RH  087%=      5-min Rain = 0
KFR1 150241Z 21018G24KT 02/M00 A3002 RMK A01 T00151003  RH  087%=      5-min Rain = 0
KFR1 150242Z 21019KT 02/M00 A3003 RMK A01 T00151004  RH  087%=      5-min Rain = 0
KFR1 150243Z 21018KT 02/M00 A3003 RMK A01 T00151004  RH  087%=      5-min Rain = 0
KFR1 150244Z 21020G26KT 02/M00 A3003 RMK A01 T00151003  RH  087%=      5-min Rain = 0
KFR1 150245Z 22021KT 02/M00 A3003 RMK A01 T00161003  RH  087%=      5-min Rain = 0
KFR1 150246Z 21018G24KT 02/M00 A3003 RMK A01 T00161003  RH  087%=      5-min Rain = 0
KFR1 150247Z 21018KT 02/M00 A3003 RMK A01 T00161003  RH  087%=      5-min Rain = 0
KFR1 150248Z 22015G20KT 02/M00 A3004 RMK A01 T00161003  RH  087%=      5-min Rain = 0
KFR1 150249Z 22016KT 02/M00 A3004 RMK A01 T00161003  RH  087%=      5-min Rain = 0
KFR1 150250Z 22018G23KT 02/M00 A3003 RMK A01 T00161003  RH  087%=      5-min Rain = 0
KFR1 150251Z 22017KT 02/M00 A3004 RMK A01 T00161003  RH  087%=      5-min Rain = 0
KFR1 150252Z 22015G21KT 02/M00 A3004 RMK A01 T00161003  RH  087%=      5-min Rain = 0
KFR1 150253Z 22017KT 02/M00 A3004 RMK A01 T00161003  RH  087%=      5-min Rain = 0
KFR1 150254Z 21018KT 02/M00 A3003 RMK A01 T00161003  RH  087%=      5-min Rain = 0
KFR1 150255Z 22015KT 02/M00 A3003 RMK A01 T00161003  RH  087%=      5-min Rain = 0
KFR1 150256Z 21017G22KT 02/M00 A3004 RMK A01 T00171003  RH  087%=      5-min Rain = 0
KFR1 150257Z 22017KT 02/M00 A3003 RMK A01 T00171002  RH  087%=      5-min Rain = 0
KFR1 150258Z 21016G21KT 02/M00 A3003 RMK A01 T00171003  RH  087%=      5-min Rain = 0
KFR1 150259Z 22016KT 02/M00 A3003 RMK A01 T00171002  RH  087%=      5-min Rain = 0
KFR1 150300Z 21017KT 02/M00 A3003 RMK A01 T00171002  RH  087%=      5-min Rain = 0
KFR1 150301Z 22019KT 02/M00 A3003 RMK A01 T00171002  RH  087%=      5-min Rain = 0
KFR1 150302Z 21017KT 02/M00 A3003 RMK A01 T00171002  RH  087%=      5-min Rain = 0
KFR1 150303Z 21020KT 02/M00 A3003 RMK A01 T00171002  RH  087%=      5-min Rain = 0
KFR1 150304Z 21017KT 02/M00 A3003 RMK A01 T00171002  RH  087%=      5-min Rain = 0
KFR1 150305Z 21017G22KT 02/M00 A3003 RMK A01 T00171002  RH  087%=      5-min Rain = 0
KFR1 150306Z 21018G24KT 02/M00 A3003 RMK A01 T00171002  RH  087%=      5-min Rain = 0
KFR1 150307Z 21018G24KT 02/M00 A3003 RMK A01 T00171002  RH  087%=      5-min Rain = 0
KFR1 150308Z 21019G27KT 02/M00 A3003 RMK A01 T00171002  RH  087%=      5-min Rain = 0
KFR1 150309Z 21023KT 02/M00 A3003 RMK A01 T00171002  RH  087%=      5-min Rain = 0
KFR1 150310Z 21022G28KT 02/M00 A3003 RMK A01 T00181001  RH  087%=      5-min Rain = 0
KFR1 150311Z 21021KT 02/M00 A3003 RMK A01 T00181002  RH  087%=      5-min Rain = 0
KFR1 150312Z 21021KT 02/M00 A3003 RMK A01 T00181002  RH  087%=      5-min Rain = 0
KFR1 150313Z 21020KT 02/M00 A3003 RMK A01 T00181002  RH  087%=      5-min Rain = 0
KFR1 150314Z 21021KT 02/M00 A3003 RMK A01 T00181002  RH  087%=      5-min Rain = 0
KFR1 150315Z 21018KT 02/M00 A3003 RMK A01 T00181001  RH  087%=      5-min Rain = 0
KFR1 150316Z 21020G25KT 02/M00 A3002 RMK A01 T00181002  RH  087%=      5-min Rain = 0
KFR1 150317Z 21023G29KT 02/M00 A3002 RMK A01 T00171002  RH  087%=      5-min Rain = 0
KFR1 150318Z 21020G25KT 02/M00 A3002 RMK A01 T00181001  RH  087%=      5-min Rain = 0
KFR1 150319Z 21019KT 02/M00 A3002 RMK A01 T00181001  RH  087%=      5-min Rain = 0
KFR1 150320Z 21019KT 02/M00 A3002 RMK A01 T00181001  RH  087%=      5-min Rain = 0
KFR1 150321Z 20019KT 02/M00 A3002 RMK A01 T00181002  RH  087%=      5-min Rain = 0
KFR1 150322Z 21017G26KT 02/M00 A3002 RMK A01 T00171002  RH  087%=      5-min Rain = 0
KFR1 150323Z 21019G24KT 02/M00 A3002 RMK A01 T00171002  RH  087%=      5-min Rain = 0
KFR1 150324Z 21018KT 02/M00 A3002 RMK A01 T00171002  RH  087%=      5-min Rain = 0
KFR1 150325Z 21021KT 02/M00 A3002 RMK A01 T00171002  RH  087%=      5-min Rain = 0
KFR1 150326Z 21019G24KT 02/M00 A3002 RMK A01 T00171001  RH  087%=      5-min Rain = 0
KFR1 150327Z 20020G27KT 02/M00 A3002 RMK A01 T00171002  RH  087%=      5-min Rain = 0
KFR1 150328Z 20021G28KT 02/M00 A3002 RMK A01 T00171002  RH  087%=      5-min Rain = 0
KFR1 150329Z 21021G26KT 02/M00 A3002 RMK A01 T00171002  RH  087%=      5-min Rain = 0
KFR1 150330Z 20018KT 02/M00 A3002 RMK A01 T00171002  RH  087%=      5-min Rain = 0
KFR1 150331Z 21018G24KT 02/M00 A3002 RMK A01 T00171002  RH  087%=      5-min Rain = 0
KFR1 150332Z 20019G24KT 02/M00 A3002 RMK A01 T00171002  RH  087%=      5-min Rain = 0
KFR1 150333Z 21020KT 02/M00 A3002 RMK A01 T00171001  RH  088%=      5-min Rain = 0
KFR1 150334Z 20022G27KT 02/M00 A3001 RMK A01 T00171001  RH  088%=      5-min Rain = 0
KFR1 150335Z 21020G25KT 02/M00 A3001 RMK A01 T00171001  RH  088%=      5-min Rain = 0
KFR1 150336Z 21018G23KT 02/M00 A3001 RMK A01 T00171001  RH  088%=      5-min Rain = 0
KFR1 150337Z 21018G23KT 02/M00 A3002 RMK A01 T00171001  RH  088%=      5-min Rain = 0
KFR1 150338Z 20019G26KT 02/M00 A3001 RMK A01 T00171001  RH  088%=      5-min Rain = 0
KFR1 150339Z 20018KT 02/M00 A3002 RMK A01 T00171001  RH  088%=      5-min Rain = 0
KFR1 150340Z 20019KT 02/M00 A3001 RMK A01 T00171001  RH  088%=      5-min Rain = 0
KFR1 150341Z 21021G28KT 02/M00 A3001 RMK A01 T00171001  RH  088%=      5-min Rain = 0
KFR1 150342Z 20019G24KT 02/M00 A3002 RMK A01 T00171001  RH  088%=      5-min Rain = 0
KFR1 150343Z 21020G25KT 02/M00 A3002 RMK A01 T00171001  RH  088%=      5-min Rain = 0
KFR1 150344Z 20018KT 02/M00 A3002 RMK A01 T00171001  RH  088%=      5-min Rain = 0
KFR1 150345Z 21020G25KT 02/M00 A3002 RMK A01 T00171001  RH  088%=      5-min Rain = 0
KFR1 150346Z 21019G27KT 02/M00 A3002 RMK A01 T00171001  RH  088%=      5-min Rain = 0
KFR1 150347Z 21019KT 02/M00 A3002 RMK A01 T00181001  RH  088%=      5-min Rain = 0
KFR1 150348Z 21018KT 02/M00 A3002 RMK A01 T00181001  RH  088%=      5-min Rain = 0
KFR1 150349Z 21022KT 02/M00 A3002 RMK A01 T00171001  RH  088%=      5-min Rain = 0
KFR1 150350Z 21020KT 02/M00 A3002 RMK A01 T00171001  RH  088%=      5-min Rain = 0
KFR1 150351Z 21019G24KT 02/M00 A3002 RMK A01 T00171001  RH  088%=      5-min Rain = 0
KFR1 150352Z 21018KT 02/M00 A3002 RMK A01 T00171001  RH  088%=      5-min Rain = 0
KFR1 150353Z 20020G25KT 02/M00 A3002 RMK A01 T00171001  RH  088%=      5-min Rain = 0
KFR1 150354Z 21018G23KT 02/M00 A3002 RMK A01 T00171001  RH  088%=      5-min Rain = 0
KFR1 150355Z 21020G25KT 02/M00 A3002 RMK A01 T00171001  RH  088%=      5-min Rain = 0
KFR1 150356Z 21018KT 02/M00 A3002 RMK A01 T00171001  RH  088%=      5-min Rain = 0
KFR1 150357Z 21019KT 02/M00 A3002 RMK A01 T00171001  RH  088%=      5-min Rain = 0
KFR1 150358Z 21019KT 02/00 A3002 RMK A01 T001700-0  RH  088%=      5-min Rain = 0
KFR1 150359Z 21021KT 02/M00 A3002 RMK A01 T00171001  RH  088%=      5-min Rain = 0
KFR1 150400Z 21018KT 02/00 A3002 RMK A01 T001700-0  RH  088%=      5-min Rain = 0
KFR1 150401Z 21017KT 02/M00 A3002 RMK A01 T00171001  RH  088%=      5-min Rain = 0
KFR1 150402Z 21018KT 02/00 A3002 RMK A01 T001800-0  RH  088%=      5-min Rain = 0
KFR1 150403Z 21021KT 02/M00 A3002 RMK A01 T00171001  RH  088%=      5-min Rain = 0
KFR1 150404Z 21021KT 02/00 A3002 RMK A01 T001700-0  RH  088%=      5-min Rain = 0
KFR1 150405Z 21019KT 02/00 A3002 RMK A01 T001800-0  RH  088%=      5-min Rain = 0
KFR1 150406Z 21020KT 02/00 A3002 RMK A01 T001800-0  RH  088%=      5-min Rain = 0
KFR1 150407Z 21022G27KT 02/00 A3002 RMK A01 T00180000  RH  088%=      5-min Rain = 0
KFR1 150408Z 21023G29KT 02/00 A3002 RMK A01 T00180000  RH  088%=      5-min Rain = 0
KFR1 150409Z 21026KT 02/00 A3001 RMK A01 T00190001  RH  088%=      5-min Rain = 0
KFR1 150410Z 21024KT 02/00 A3001 RMK A01 T00200001  RH  087%=      5-min Rain = 0
KFR1 150411Z 21024KT 02/00 A3001 RMK A01 T00200001  RH  087%=      5-min Rain = 0
KFR1 150412Z 21023G28KT 02/00 A3001 RMK A01 T00200000  RH  087%=      5-min Rain = 0
KFR1 150413Z 21025G31KT 02/00 A3001 RMK A01 T00200001  RH  087%=      5-min Rain = 0
KFR1 150414Z 20025KT 02/00 A3001 RMK A01 T00200001  RH  087%=      5-min Rain = 0
KFR1 150415Z 21023G31KT 02/00 A3001 RMK A01 T00200001  RH  087%=      5-min Rain = 0
KFR1 150416Z 21024KT 02/00 A3001 RMK A01 T00200001  RH  087%=      5-min Rain = 0
KFR1 150417Z 20022G27KT 02/00 A3001 RMK A01 T00200001  RH  087%=      5-min Rain = 0
KFR1 150418Z 21022KT 02/00 A30 RMK A01 T00190000  RH  087%=      5-min Rain = 0
KFR1 150419Z 21024G30KT 02/00 A3001 RMK A01 T00200001  RH  087%=      5-min Rain = 0
KFR1 150420Z 21021G26KT 02/00 A30 RMK A01 T00190000  RH  087%=      5-min Rain = 0
KFR1 150421Z 21024KT 02/00 A30 RMK A01 T00200001  RH  087%=      5-min Rain = 0
KFR1 150422Z 21022KT 02/00 A3001 RMK A01 T00200001  RH  088%=      5-min Rain = 0
KFR1 150423Z 21024G29KT 02/00 A3001 RMK A01 T00190001  RH  087%=      5-min Rain = 0
KFR1 150424Z 21025G30KT 02/00 A30 RMK A01 T00190001  RH  088%=      5-min Rain = 0
KFR1 150425Z 21021KT 02/00 A3001 RMK A01 T00200001  RH  087%=      5-min Rain = 0
KFR1 150426Z 21022G31KT 02/00 A30 RMK A01 T00200001  RH  087%=      5-min Rain = 0
KFR1 150427Z 21023G28KT 02/00 A30 RMK A01 T00200001  RH  087%=      5-min Rain = 0
KFR1 150428Z 21023G29KT 02/00 A30 RMK A01 T00200001  RH  087%=      5-min Rain = 0
KFR1 150429Z 21024G30KT 02/00 A30 RMK A01 T00200001  RH  087%=      5-min Rain = 0
KFR1 150430Z 21026KT 02/00 A30 RMK A01 T00200001  RH  087%=      5-min Rain = 0
KFR1 150431Z 21025KT 02/00 A30 RMK A01 T00210001  RH  087%=      5-min Rain = 0
KFR1 150432Z 21022KT 02/00 A30 RMK A01 T00210001  RH  087%=      5-min Rain = 0
KFR1 150433Z 20024KT 02/00 A30 RMK A01 T00210001  RH  087%=      5-min Rain = 0
KFR1 150434Z 21026G31KT 02/00 A2999 RMK A01 T00210001  RH  087%=      5-min Rain = 0
KFR1 150435Z 21024KT 02/00 A30 RMK A01 T00220001  RH  086%=      5-min Rain = 0
KFR1 150436Z 21024G30KT 02/00 A30 RMK A01 T00220001  RH  086%=      5-min Rain = 0
KFR1 150437Z 21021G26KT 02/00 A30 RMK A01 T00220001  RH  086%=      5-min Rain = 0
KFR1 150438Z 21023KT 02/00 A30 RMK A01 T00220001  RH  086%=      5-min Rain = 0
KFR1 150439Z 21023G28KT 02/00 A30 RMK A01 T00220001  RH  086%=      5-min Rain = 0
KFR1 150440Z 21022KT 02/00 A30 RMK A01 T00220001  RH  086%=      5-min Rain = 0
KFR1 150441Z 21024G29KT 02/00 A30 RMK A01 T00220001  RH  086%=      5-min Rain = 0
KFR1 150442Z 21021KT 02/00 A30 RMK A01 T00220001  RH  086%=      5-min Rain = 0
KFR1 150443Z 21021G26KT 02/00 A30 RMK A01 T00220001  RH  086%=      5-min Rain = 0
KFR1 150444Z 21020KT 02/00 A30 RMK A01 T00220001  RH  086%=      5-min Rain = 0
KFR1 150445Z 21025KT 02/00 A30 RMK A01 T00220001  RH  086%=      5-min Rain = 0
KFR1 150446Z 21022G27KT 02/00 A30 RMK A01 T00230002  RH  086%=      5-min Rain = 0
KFR1 150447Z 21022KT 02/00 A30 RMK A01 T00240002  RH  085%=      5-min Rain = 0
KFR1 150448Z 21024G30KT 02/00 A30 RMK A01 T00230001  RH  085%=      5-min Rain = 0
KFR1 150449Z 21021KT 02/00 A30 RMK A01 T00240002  RH  085%=      5-min Rain = 0
KFR1 150450Z 21020KT 02/00 A30 RMK A01 T00240002  RH  085%=      5-min Rain = 0
KFR1 150451Z 21021KT 02/00 A30 RMK A01 T00240001  RH  085%=      5-min Rain = 0
KFR1 150452Z 21021G26KT 02/00 A30 RMK A01 T00240002  RH  085%=      5-min Rain = 0
KFR1 150453Z 21022KT 02/00 A30 RMK A01 T00240002  RH  085%=      5-min Rain = 0
KFR1 150454Z 21022KT 03/00 A3001 RMK A01 T00250002  RH  085%=      5-min Rain = 0
KFR1 150455Z 22019KT 03/00 A3001 RMK A01 T00260003  RH  085%=      5-min Rain = 0
KFR1 150456Z 21020KT 03/00 A3001 RMK A01 T00260003  RH  085%=      5-min Rain = 0
KFR1 150457Z 22019KT 03/00 A3001 RMK A01 T00260003  RH  084%=      5-min Rain = 0
KFR1 150458Z 22019KT 03/00 A30 RMK A01 T00280003  RH  084%=      5-min Rain = 0
KFR1 150459Z 22021KT 03/00 A30 RMK A01 T00290004  RH  084%=      5-min Rain = 0
KFR1 150500Z 21019KT 03/00 A30 RMK A01 T00290004  RH  083%=      5-min Rain = 0
KFR1 150501Z 22020KT 03/00 A30 RMK A01 T00300004  RH  083%=      5-min Rain = 0
KFR1 150502Z 22021G26KT 03/00 A30 RMK A01 T00300004  RH  083%=      5-min Rain = 0
KFR1 150503Z 21020KT 03/00 A30 RMK A01 T00310004  RH  083%=      5-min Rain = 0
KFR1 150504Z 21020KT 03/00 A30 RMK A01 T00310004  RH  082%=      5-min Rain = 0
KFR1 150505Z 21023KT 03/01 A30 RMK A01 T00320005  RH  082%=      5-min Rain = 0
KFR1 150506Z 22024KT 03/01 A2999 RMK A01 T00340005  RH  082%=      5-min Rain = 0
KFR1 150507Z 22023G29KT 04/01 A2999 RMK A01 T00350005  RH  081%=      5-min Rain = 0
KFR1 150508Z 22022G27KT 04/01 A2999 RMK A01 T00360006  RH  081%=      5-min Rain = 0
KFR1 150509Z 22022G28KT 04/01 A2999 RMK A01 T00360005  RH  080%=      5-min Rain = 0
KFR1 150510Z 21023G29KT 04/01 A2999 RMK A01 T00360005  RH  080%=      5-min Rain = 0
KFR1 150511Z 21022G27KT 04/01 A2999 RMK A01 T00360006  RH  080%=      5-min Rain = 0
KFR1 150512Z 22023G28KT 04/01 A2999 RMK A01 T00360006  RH  080%=      5-min Rain = 0
KFR1 150513Z 22026G31KT 04/01 A2999 RMK A01 T00370006  RH  080%=      5-min Rain = 0
KFR1 150514Z 21023KT 04/01 A2999 RMK A01 T00380007  RH  080%=      5-min Rain = 0
KFR1 150515Z 22022KT 04/01 A2999 RMK A01 T00380007  RH  080%=      5-min Rain = 0
KFR1 150516Z 21025G30KT 04/01 A2999 RMK A01 T00390008  RH  080%=      5-min Rain = 0
KFR1 150517Z 22022G27KT 04/01 A2999 RMK A01 T00400008  RH  080%=      5-min Rain = 0
KFR1 150518Z 21022KT 04/01 A2999 RMK A01 T00410008  RH  079%=      5-min Rain = 0
KFR1 150519Z 22021KT 04/01 A30 RMK A01 T00410008  RH  079%=      5-min Rain = 0
KFR1 150520Z 22023KT 04/01 A30 RMK A01 T00410008  RH  079%=      5-min Rain = 0
KFR1 150521Z 22023G28KT 04/01 A30 RMK A01 T00420009  RH  079%=      5-min Rain = 0
KFR1 150522Z 22021KT 04/01 A30 RMK A01 T00430009  RH  079%=      5-min Rain = 0
KFR1 150523Z 23020KT 04/01 A30 RMK A01 T00420009  RH  079%=      5-min Rain = 0
KFR1 150524Z 22019KT 04/01 A30 RMK A01 T00420009  RH  079%=      5-min Rain = 0
KFR1 150525Z 22019KT 04/01 A30 RMK A01 T00420009  RH  079%=      5-min Rain = 0
KFR1 150526Z 23020KT 04/01 A30 RMK A01 T00420010  RH  079%=      5-min Rain = 0
KFR1 150527Z 22020G25KT 04/01 A30 RMK A01 T00430010  RH  079%=      5-min Rain = 0
KFR1 150528Z 22022G28KT 04/01 A30 RMK A01 T00440010  RH  079%=      5-min Rain = 0
KFR1 150529Z 22022KT 04/01 A30 RMK A01 T00440011  RH  079%=      5-min Rain = 0
KFR1 150530Z 22020KT 05/01 A30 RMK A01 T00450011  RH  079%=      5-min Rain = 0
KFR1 150531Z 22019KT 05/01 A30 RMK A01 T00450011  RH  079%=      5-min Rain = 0
KFR1 150532Z 22019G24KT 05/01 A30 RMK A01 T00450011  RH  079%=      5-min Rain = 0
KFR1 150533Z 22019KT 05/01 A30 RMK A01 T00450011  RH  079%=      5-min Rain = 0
KFR1 150534Z 23018G23KT 05/01 A30 RMK A01 T00450011  RH  079%=      5-min Rain = 0
KFR1 150535Z 23019KT 05/01 A30 RMK A01 T00450012  RH  079%=      5-min Rain = 0
KFR1 150536Z 22019KT 05/01 A30 RMK A01 T00450012  RH  079%=      5-min Rain = 0
KFR1 150537Z 22018KT 05/01 A30 RMK A01 T00460013  RH  079%=      5-min Rain = 0
KFR1 150538Z 22020KT 05/01 A30 RMK A01 T00460013  RH  079%=      5-min Rain = 0
KFR1 150539Z 23021KT 05/01 A30 RMK A01 T00470013  RH  079%=      5-min Rain = 0
KFR1 150540Z 23017G22KT 05/01 A30 RMK A01 T00480014  RH  079%=      5-min Rain = 0
KFR1 150541Z 23019KT 05/01 A30 RMK A01 T00480014  RH  079%=      5-min Rain = 0
KFR1 150542Z 23016KT 05/01 A30 RMK A01 T00480014  RH  079%=      5-min Rain = 0
KFR1 150543Z 23017KT 05/01 A30 RMK A01 T00490014  RH  078%=      5-min Rain = 0
KFR1 150544Z 23019G24KT 05/01 A30 RMK A01 T00480014  RH  079%=      5-min Rain = 0
KFR1 150545Z 23023KT 05/02 A30 RMK A01 T00490015  RH  079%=      5-min Rain = 0
KFR1 150546Z 22020G27KT 05/02 A30 RMK A01 T00510016  RH  078%=      5-min Rain = 0
KFR1 150547Z 23022G28KT 05/02 A30 RMK A01 T00510016  RH  078%=      5-min Rain = 0
KFR1 150548Z 22021G27KT 05/02 A30 RMK A01 T00510016  RH  078%=      5-min Rain = 0
KFR1 150549Z 22022G29KT 05/02 A2999 RMK A01 T00510015  RH  078%=      5-min Rain = 0
KFR1 150550Z 22021G27KT 05/02 A30 RMK A01 T00510015  RH  078%=      5-min Rain = 0
KFR1 150551Z 22023KT 05/02 A2999 RMK A01 T00510015  RH  078%=      5-min Rain = 0
KFR1 150552Z 22022G28KT 05/02 A30 RMK A01 T00520016  RH  077%=      5-min Rain = 0
KFR1 150553Z 22023G28KT 05/02 A2999 RMK A01 T00530016  RH  077%=      5-min Rain = 0
KFR1 150554Z 22025KT 05/02 A2999 RMK A01 T00530016  RH  077%=      5-min Rain = 0
KFR1 150555Z 22022G27KT 05/02 A30 RMK A01 T00530016  RH  077%=      5-min Rain = 0
KFR1 150556Z 22023KT 05/02 A2999 RMK A01 T00530016  RH  077%=      5-min Rain = 0
KFR1 150557Z 22022G30KT 05/02 A2999 RMK A01 T00530015  RH  077%=      5-min Rain = 0
KFR1 150558Z 22022G28KT 05/02 A2999 RMK A01 T00520015  RH  077%=      5-min Rain = 0
KFR1 150559Z 22022KT 05/02 A2999 RMK A01 T00520015  RH  077%=      5-min Rain = 0

Page generated in 0.1695 seconds.